<?xml version="1.0" encoding="UTF-8" standalone="no" ?>
<gpx xmlns="http://www.topografix.com/GPX/1/1" xmlns:xsi="http://www.w3.org/2001/XMLSchema-instance" xsi:schemaLocation="http://www.topografix.com/GPX/1/1 http://www.topografix.com/GPX/1/1/gpx.xsd" version="1.1" creator="VisuGPX - https://www.visugpx.com">
  <metadata>
    <name>Session VTT</name>
    <desc><![CDATA[Session VTT pour preparer la vetiflette
]]></desc>
  </metadata>
  <trk>
    <name><![CDATA[2015-06-10 10:54:57]]></name>
    <trkseg>
      <trkpt lat="50.12474" lon="3.67814">
        <ele>129.92</ele>
        <time>2015-06-10T06:57:47Z</time>
      </trkpt>
      <trkpt lat="50.12474" lon="3.67814">
        <ele>129.92</ele>
        <time>2015-06-10T06:57:48Z</time>
      </trkpt>
      <trkpt lat="50.1247" lon="3.67819">
        <ele>129.92</ele>
        <time>2015-06-10T06:58:24Z</time>
      </trkpt>
      <trkpt lat="50.1247" lon="3.67818">
        <ele>129.92</ele>
        <time>2015-06-10T06:59:06Z</time>
      </trkpt>
      <trkpt lat="50.12468" lon="3.67818">
        <ele>129.92</ele>
        <time>2015-06-10T06:59:49Z</time>
      </trkpt>
      <trkpt lat="50.12471" lon="3.67817">
        <ele>130.4</ele>
        <time>2015-06-10T07:00:26Z</time>
      </trkpt>
      <trkpt lat="50.1247" lon="3.67818">
        <ele>130.4</ele>
        <time>2015-06-10T07:01:10Z</time>
      </trkpt>
      <trkpt lat="50.12469" lon="3.67818">
        <ele>130.4</ele>
        <time>2015-06-10T07:01:53Z</time>
      </trkpt>
      <trkpt lat="50.12469" lon="3.6782">
        <ele>130.88</ele>
        <time>2015-06-10T07:02:36Z</time>
      </trkpt>
      <trkpt lat="50.12468" lon="3.67818">
        <ele>130.88</ele>
        <time>2015-06-10T07:03:28Z</time>
      </trkpt>
      <trkpt lat="50.12468" lon="3.67817">
        <ele>129.92</ele>
        <time>2015-06-10T07:03:33Z</time>
      </trkpt>
      <trkpt lat="50.12471" lon="3.67816">
        <ele>129.92</ele>
        <time>2015-06-10T07:03:44Z</time>
      </trkpt>
      <trkpt lat="50.12475" lon="3.67813">
        <ele>129.92</ele>
        <time>2015-06-10T07:03:47Z</time>
      </trkpt>
      <trkpt lat="50.12476" lon="3.67807">
        <ele>129.92</ele>
        <time>2015-06-10T07:03:49Z</time>
      </trkpt>
      <trkpt lat="50.12475" lon="3.67804">
        <ele>129.92</ele>
        <time>2015-06-10T07:03:50Z</time>
      </trkpt>
      <trkpt lat="50.12473" lon="3.67802">
        <ele>129.92</ele>
        <time>2015-06-10T07:03:51Z</time>
      </trkpt>
      <trkpt lat="50.12471" lon="3.67801">
        <ele>129.92</ele>
        <time>2015-06-10T07:03:52Z</time>
      </trkpt>
      <trkpt lat="50.12469" lon="3.678">
        <ele>129.92</ele>
        <time>2015-06-10T07:03:53Z</time>
      </trkpt>
      <trkpt lat="50.12467" lon="3.67799">
        <ele>129.92</ele>
        <time>2015-06-10T07:03:54Z</time>
      </trkpt>
      <trkpt lat="50.12464" lon="3.67799">
        <ele>129.92</ele>
        <time>2015-06-10T07:03:55Z</time>
      </trkpt>
      <trkpt lat="50.12462" lon="3.678">
        <ele>129.92</ele>
        <time>2015-06-10T07:03:56Z</time>
      </trkpt>
      <trkpt lat="50.12459" lon="3.67801">
        <ele>129.92</ele>
        <time>2015-06-10T07:03:57Z</time>
      </trkpt>
      <trkpt lat="50.12424" lon="3.67827">
        <ele>129.92</ele>
        <time>2015-06-10T07:04:11Z</time>
      </trkpt>
      <trkpt lat="50.12358" lon="3.679">
        <ele>129.92</ele>
        <time>2015-06-10T07:04:31Z</time>
      </trkpt>
      <trkpt lat="50.12326" lon="3.67937">
        <ele>129.92</ele>
        <time>2015-06-10T07:04:42Z</time>
      </trkpt>
      <trkpt lat="50.12338" lon="3.67979">
        <ele>130.4</ele>
        <time>2015-06-10T07:04:51Z</time>
      </trkpt>
      <trkpt lat="50.12326" lon="3.68062">
        <ele>130.4</ele>
        <time>2015-06-10T07:05:10Z</time>
      </trkpt>
      <trkpt lat="50.12312" lon="3.68137">
        <ele>130.4</ele>
        <time>2015-06-10T07:05:30Z</time>
      </trkpt>
      <trkpt lat="50.12299" lon="3.68196">
        <ele>130.4</ele>
        <time>2015-06-10T07:05:47Z</time>
      </trkpt>
      <trkpt lat="50.12292" lon="3.68214">
        <ele>132.32</ele>
        <time>2015-06-10T07:05:53Z</time>
      </trkpt>
      <trkpt lat="50.12261" lon="3.68183">
        <ele>132.32</ele>
        <time>2015-06-10T07:06:06Z</time>
      </trkpt>
      <trkpt lat="50.12197" lon="3.68091">
        <ele>132.8</ele>
        <time>2015-06-10T07:06:31Z</time>
      </trkpt>
      <trkpt lat="50.12129" lon="3.68001">
        <ele>132.8</ele>
        <time>2015-06-10T07:06:55Z</time>
      </trkpt>
      <trkpt lat="50.12074" lon="3.67927">
        <ele>132.8</ele>
        <time>2015-06-10T07:07:14Z</time>
      </trkpt>
      <trkpt lat="50.12014" lon="3.67843">
        <ele>132.8</ele>
        <time>2015-06-10T07:07:35Z</time>
      </trkpt>
      <trkpt lat="50.11954" lon="3.67763">
        <ele>132.8</ele>
        <time>2015-06-10T07:07:56Z</time>
      </trkpt>
      <trkpt lat="50.11906" lon="3.67699">
        <ele>133.28</ele>
        <time>2015-06-10T07:08:12Z</time>
      </trkpt>
      <trkpt lat="50.11845" lon="3.67621">
        <ele>131.84</ele>
        <time>2015-06-10T07:08:32Z</time>
      </trkpt>
      <trkpt lat="50.11774" lon="3.67522">
        <ele>131.84</ele>
        <time>2015-06-10T07:08:56Z</time>
      </trkpt>
      <trkpt lat="50.11692" lon="3.67412">
        <ele>131.84</ele>
        <time>2015-06-10T07:09:23Z</time>
      </trkpt>
      <trkpt lat="50.11611" lon="3.67298">
        <ele>131.84</ele>
        <time>2015-06-10T07:09:51Z</time>
      </trkpt>
      <trkpt lat="50.11549" lon="3.67214">
        <ele>131.84</ele>
        <time>2015-06-10T07:10:11Z</time>
      </trkpt>
      <trkpt lat="50.11462" lon="3.67097">
        <ele>132.32</ele>
        <time>2015-06-10T07:10:38Z</time>
      </trkpt>
      <trkpt lat="50.11378" lon="3.6698">
        <ele>132.32</ele>
        <time>2015-06-10T07:11:03Z</time>
      </trkpt>
      <trkpt lat="50.11321" lon="3.66904">
        <ele>132.32</ele>
        <time>2015-06-10T07:11:20Z</time>
      </trkpt>
      <trkpt lat="50.1126" lon="3.668">
        <ele>132.32</ele>
        <time>2015-06-10T07:11:40Z</time>
      </trkpt>
      <trkpt lat="50.11212" lon="3.66679">
        <ele>132.32</ele>
        <time>2015-06-10T07:11:59Z</time>
      </trkpt>
      <trkpt lat="50.11156" lon="3.66538">
        <ele>132.32</ele>
        <time>2015-06-10T07:12:19Z</time>
      </trkpt>
      <trkpt lat="50.11103" lon="3.66406">
        <ele>132.32</ele>
        <time>2015-06-10T07:12:39Z</time>
      </trkpt>
      <trkpt lat="50.11086" lon="3.66359">
        <ele>132.32</ele>
        <time>2015-06-10T07:12:46Z</time>
      </trkpt>
      <trkpt lat="50.11077" lon="3.66238">
        <ele>132.32</ele>
        <time>2015-06-10T07:13:02Z</time>
      </trkpt>
      <trkpt lat="50.11108" lon="3.66141">
        <ele>132.32</ele>
        <time>2015-06-10T07:13:17Z</time>
      </trkpt>
      <trkpt lat="50.11156" lon="3.66043">
        <ele>133.76</ele>
        <time>2015-06-10T07:13:35Z</time>
      </trkpt>
      <trkpt lat="50.11214" lon="3.65924">
        <ele>133.76</ele>
        <time>2015-06-10T07:13:56Z</time>
      </trkpt>
      <trkpt lat="50.1127" lon="3.65808">
        <ele>133.76</ele>
        <time>2015-06-10T07:14:16Z</time>
      </trkpt>
      <trkpt lat="50.11331" lon="3.65683">
        <ele>133.76</ele>
        <time>2015-06-10T07:14:39Z</time>
      </trkpt>
      <trkpt lat="50.11388" lon="3.65564">
        <ele>133.76</ele>
        <time>2015-06-10T07:15:00Z</time>
      </trkpt>
      <trkpt lat="50.11419" lon="3.65455">
        <ele>133.76</ele>
        <time>2015-06-10T07:15:17Z</time>
      </trkpt>
      <trkpt lat="50.11407" lon="3.65333">
        <ele>133.76</ele>
        <time>2015-06-10T07:15:34Z</time>
      </trkpt>
      <trkpt lat="50.11394" lon="3.65292">
        <ele>133.76</ele>
        <time>2015-06-10T07:15:40Z</time>
      </trkpt>
      <trkpt lat="50.11376" lon="3.6525">
        <ele>133.76</ele>
        <time>2015-06-10T07:15:47Z</time>
      </trkpt>
      <trkpt lat="50.11313" lon="3.65138">
        <ele>133.76</ele>
        <time>2015-06-10T07:16:07Z</time>
      </trkpt>
      <trkpt lat="50.11267" lon="3.65062">
        <ele>133.76</ele>
        <time>2015-06-10T07:16:21Z</time>
      </trkpt>
      <trkpt lat="50.11213" lon="3.64974">
        <ele>134.24</ele>
        <time>2015-06-10T07:16:38Z</time>
      </trkpt>
      <trkpt lat="50.11151" lon="3.64873">
        <ele>134.24</ele>
        <time>2015-06-10T07:16:57Z</time>
      </trkpt>
      <trkpt lat="50.11087" lon="3.64768">
        <ele>134.24</ele>
        <time>2015-06-10T07:17:17Z</time>
      </trkpt>
      <trkpt lat="50.1104" lon="3.64696">
        <ele>134.24</ele>
        <time>2015-06-10T07:17:31Z</time>
      </trkpt>
      <trkpt lat="50.11025" lon="3.64681">
        <ele>134.24</ele>
        <time>2015-06-10T07:17:35Z</time>
      </trkpt>
      <trkpt lat="50.10952" lon="3.64618">
        <ele>134.24</ele>
        <time>2015-06-10T07:17:53Z</time>
      </trkpt>
      <trkpt lat="50.10877" lon="3.64553">
        <ele>134.24</ele>
        <time>2015-06-10T07:18:12Z</time>
      </trkpt>
      <trkpt lat="50.1081" lon="3.64495">
        <ele>134.24</ele>
        <time>2015-06-10T07:18:29Z</time>
      </trkpt>
      <trkpt lat="50.10795" lon="3.64482">
        <ele>134.24</ele>
        <time>2015-06-10T07:18:33Z</time>
      </trkpt>
      <trkpt lat="50.10751" lon="3.64445">
        <ele>134.24</ele>
        <time>2015-06-10T07:18:44Z</time>
      </trkpt>
      <trkpt lat="50.10727" lon="3.64422">
        <ele>134.24</ele>
        <time>2015-06-10T07:18:52Z</time>
      </trkpt>
      <trkpt lat="50.10727" lon="3.64418">
        <ele>134.24</ele>
        <time>2015-06-10T07:18:53Z</time>
      </trkpt>
      <trkpt lat="50.10728" lon="3.6441">
        <ele>134.24</ele>
        <time>2015-06-10T07:18:55Z</time>
      </trkpt>
      <trkpt lat="50.10748" lon="3.64343">
        <ele>133.28</ele>
        <time>2015-06-10T07:19:06Z</time>
      </trkpt>
      <trkpt lat="50.10756" lon="3.64282">
        <ele>134.24</ele>
        <time>2015-06-10T07:19:15Z</time>
      </trkpt>
      <trkpt lat="50.10766" lon="3.6428">
        <ele>134.24</ele>
        <time>2015-06-10T07:19:20Z</time>
      </trkpt>
      <trkpt lat="50.10776" lon="3.64291">
        <ele>134.24</ele>
        <time>2015-06-10T07:19:23Z</time>
      </trkpt>
      <trkpt lat="50.10807" lon="3.64289">
        <ele>134.24</ele>
        <time>2015-06-10T07:19:32Z</time>
      </trkpt>
      <trkpt lat="50.10823" lon="3.64301">
        <ele>133.28</ele>
        <time>2015-06-10T07:19:37Z</time>
      </trkpt>
      <trkpt lat="50.10826" lon="3.64291">
        <ele>132.8</ele>
        <time>2015-06-10T07:19:41Z</time>
      </trkpt>
      <trkpt lat="50.10806" lon="3.64187">
        <ele>132.8</ele>
        <time>2015-06-10T07:19:59Z</time>
      </trkpt>
      <trkpt lat="50.10804" lon="3.6408">
        <ele>132.8</ele>
        <time>2015-06-10T07:20:19Z</time>
      </trkpt>
      <trkpt lat="50.10818" lon="3.63989">
        <ele>132.8</ele>
        <time>2015-06-10T07:20:36Z</time>
      </trkpt>
      <trkpt lat="50.1083" lon="3.63918">
        <ele>132.8</ele>
        <time>2015-06-10T07:20:52Z</time>
      </trkpt>
      <trkpt lat="50.10833" lon="3.63892">
        <ele>132.8</ele>
        <time>2015-06-10T07:21:04Z</time>
      </trkpt>
      <trkpt lat="50.10859" lon="3.63873">
        <ele>132.8</ele>
        <time>2015-06-10T07:21:14Z</time>
      </trkpt>
      <trkpt lat="50.10895" lon="3.6385">
        <ele>135.2</ele>
        <time>2015-06-10T07:21:29Z</time>
      </trkpt>
      <trkpt lat="50.10945" lon="3.63828">
        <ele>138.57</ele>
        <time>2015-06-10T07:21:47Z</time>
      </trkpt>
      <trkpt lat="50.10949" lon="3.63826">
        <ele>138.57</ele>
        <time>2015-06-10T07:21:48Z</time>
      </trkpt>
      <trkpt lat="50.10959" lon="3.63816">
        <ele>139.05</ele>
        <time>2015-06-10T07:21:53Z</time>
      </trkpt>
      <trkpt lat="50.10959" lon="3.63813">
        <ele>139.05</ele>
        <time>2015-06-10T07:21:54Z</time>
      </trkpt>
      <trkpt lat="50.10958" lon="3.63809">
        <ele>139.05</ele>
        <time>2015-06-10T07:21:55Z</time>
      </trkpt>
      <trkpt lat="50.10955" lon="3.63803">
        <ele>137.61</ele>
        <time>2015-06-10T07:21:56Z</time>
      </trkpt>
      <trkpt lat="50.10952" lon="3.63797">
        <ele>137.61</ele>
        <time>2015-06-10T07:21:57Z</time>
      </trkpt>
      <trkpt lat="50.10949" lon="3.63791">
        <ele>137.61</ele>
        <time>2015-06-10T07:21:58Z</time>
      </trkpt>
      <trkpt lat="50.10889" lon="3.63669">
        <ele>134.72</ele>
        <time>2015-06-10T07:22:16Z</time>
      </trkpt>
      <trkpt lat="50.10829" lon="3.63562">
        <ele>134.72</ele>
        <time>2015-06-10T07:22:36Z</time>
      </trkpt>
      <trkpt lat="50.10779" lon="3.6347">
        <ele>136.64</ele>
        <time>2015-06-10T07:22:53Z</time>
      </trkpt>
      <trkpt lat="50.10746" lon="3.6341">
        <ele>140.49</ele>
        <time>2015-06-10T07:23:02Z</time>
      </trkpt>
      <trkpt lat="50.10699" lon="3.63326">
        <ele>141.93</ele>
        <time>2015-06-10T07:23:18Z</time>
      </trkpt>
      <trkpt lat="50.10667" lon="3.6327">
        <ele>142.89</ele>
        <time>2015-06-10T07:23:30Z</time>
      </trkpt>
      <trkpt lat="50.1066" lon="3.63261">
        <ele>142.89</ele>
        <time>2015-06-10T07:23:32Z</time>
      </trkpt>
      <trkpt lat="50.106" lon="3.63158">
        <ele>142.89</ele>
        <time>2015-06-10T07:23:51Z</time>
      </trkpt>
      <trkpt lat="50.10539" lon="3.63045">
        <ele>142.89</ele>
        <time>2015-06-10T07:24:09Z</time>
      </trkpt>
      <trkpt lat="50.10473" lon="3.6292">
        <ele>143.37</ele>
        <time>2015-06-10T07:24:28Z</time>
      </trkpt>
      <trkpt lat="50.10417" lon="3.62808">
        <ele>144.34</ele>
        <time>2015-06-10T07:24:45Z</time>
      </trkpt>
      <trkpt lat="50.10368" lon="3.62712">
        <ele>144.82</ele>
        <time>2015-06-10T07:25:03Z</time>
      </trkpt>
      <trkpt lat="50.10365" lon="3.62706">
        <ele>144.82</ele>
        <time>2015-06-10T07:25:04Z</time>
      </trkpt>
      <trkpt lat="50.10359" lon="3.62696">
        <ele>143.37</ele>
        <time>2015-06-10T07:25:06Z</time>
      </trkpt>
      <trkpt lat="50.10353" lon="3.62685">
        <ele>142.89</ele>
        <time>2015-06-10T07:25:08Z</time>
      </trkpt>
      <trkpt lat="50.10351" lon="3.6268">
        <ele>142.41</ele>
        <time>2015-06-10T07:25:09Z</time>
      </trkpt>
      <trkpt lat="50.10345" lon="3.62668">
        <ele>142.41</ele>
        <time>2015-06-10T07:25:11Z</time>
      </trkpt>
      <trkpt lat="50.10336" lon="3.62653">
        <ele>142.41</ele>
        <time>2015-06-10T07:25:14Z</time>
      </trkpt>
      <trkpt lat="50.10332" lon="3.62649">
        <ele>142.41</ele>
        <time>2015-06-10T07:25:15Z</time>
      </trkpt>
      <trkpt lat="50.10282" lon="3.62583">
        <ele>142.41</ele>
        <time>2015-06-10T07:25:30Z</time>
      </trkpt>
      <trkpt lat="50.10255" lon="3.62535">
        <ele>142.41</ele>
        <time>2015-06-10T07:25:39Z</time>
      </trkpt>
      <trkpt lat="50.10252" lon="3.62529">
        <ele>142.41</ele>
        <time>2015-06-10T07:25:40Z</time>
      </trkpt>
      <trkpt lat="50.10249" lon="3.62523">
        <ele>142.41</ele>
        <time>2015-06-10T07:25:41Z</time>
      </trkpt>
      <trkpt lat="50.10246" lon="3.62518">
        <ele>142.41</ele>
        <time>2015-06-10T07:25:42Z</time>
      </trkpt>
      <trkpt lat="50.10242" lon="3.62512">
        <ele>142.41</ele>
        <time>2015-06-10T07:25:43Z</time>
      </trkpt>
      <trkpt lat="50.10196" lon="3.62427">
        <ele>142.41</ele>
        <time>2015-06-10T07:25:58Z</time>
      </trkpt>
      <trkpt lat="50.10193" lon="3.62422">
        <ele>142.41</ele>
        <time>2015-06-10T07:25:59Z</time>
      </trkpt>
      <trkpt lat="50.10187" lon="3.62413">
        <ele>142.41</ele>
        <time>2015-06-10T07:26:01Z</time>
      </trkpt>
      <trkpt lat="50.10185" lon="3.62408">
        <ele>142.41</ele>
        <time>2015-06-10T07:26:02Z</time>
      </trkpt>
      <trkpt lat="50.10135" lon="3.62318">
        <ele>143.37</ele>
        <time>2015-06-10T07:26:21Z</time>
      </trkpt>
      <trkpt lat="50.10105" lon="3.62246">
        <ele>143.37</ele>
        <time>2015-06-10T07:26:34Z</time>
      </trkpt>
      <trkpt lat="50.10104" lon="3.6224">
        <ele>143.37</ele>
        <time>2015-06-10T07:26:35Z</time>
      </trkpt>
      <trkpt lat="50.10104" lon="3.62231">
        <ele>143.37</ele>
        <time>2015-06-10T07:26:36Z</time>
      </trkpt>
      <trkpt lat="50.10105" lon="3.62226">
        <ele>143.37</ele>
        <time>2015-06-10T07:26:37Z</time>
      </trkpt>
      <trkpt lat="50.10105" lon="3.6222">
        <ele>143.37</ele>
        <time>2015-06-10T07:26:38Z</time>
      </trkpt>
      <trkpt lat="50.10097" lon="3.62127">
        <ele>144.34</ele>
        <time>2015-06-10T07:26:54Z</time>
      </trkpt>
      <trkpt lat="50.10067" lon="3.62006">
        <ele>144.34</ele>
        <time>2015-06-10T07:27:15Z</time>
      </trkpt>
      <trkpt lat="50.10063" lon="3.61987">
        <ele>144.34</ele>
        <time>2015-06-10T07:27:18Z</time>
      </trkpt>
      <trkpt lat="50.10042" lon="3.61856">
        <ele>144.34</ele>
        <time>2015-06-10T07:27:38Z</time>
      </trkpt>
      <trkpt lat="50.10018" lon="3.61695">
        <ele>146.26</ele>
        <time>2015-06-10T07:28:04Z</time>
      </trkpt>
      <trkpt lat="50.1" lon="3.61585">
        <ele>148.66</ele>
        <time>2015-06-10T07:28:23Z</time>
      </trkpt>
      <trkpt lat="50.09989" lon="3.61468">
        <ele>147.7</ele>
        <time>2015-06-10T07:28:42Z</time>
      </trkpt>
      <trkpt lat="50.09994" lon="3.61369">
        <ele>144.82</ele>
        <time>2015-06-10T07:28:59Z</time>
      </trkpt>
      <trkpt lat="50.09995" lon="3.61302">
        <ele>145.3</ele>
        <time>2015-06-10T07:29:16Z</time>
      </trkpt>
      <trkpt lat="50.09995" lon="3.61252">
        <ele>146.26</ele>
        <time>2015-06-10T07:29:27Z</time>
      </trkpt>
      <trkpt lat="50.09993" lon="3.61229">
        <ele>147.22</ele>
        <time>2015-06-10T07:29:33Z</time>
      </trkpt>
      <trkpt lat="50.09991" lon="3.61224">
        <ele>147.22</ele>
        <time>2015-06-10T07:29:34Z</time>
      </trkpt>
      <trkpt lat="50.09989" lon="3.61221">
        <ele>147.7</ele>
        <time>2015-06-10T07:29:35Z</time>
      </trkpt>
      <trkpt lat="50.09946" lon="3.612">
        <ele>149.14</ele>
        <time>2015-06-10T07:29:51Z</time>
      </trkpt>
      <trkpt lat="50.09906" lon="3.61203">
        <ele>149.14</ele>
        <time>2015-06-10T07:30:04Z</time>
      </trkpt>
      <trkpt lat="50.09871" lon="3.61223">
        <ele>149.62</ele>
        <time>2015-06-10T07:30:17Z</time>
      </trkpt>
      <trkpt lat="50.09867" lon="3.6123">
        <ele>148.18</ele>
        <time>2015-06-10T07:30:19Z</time>
      </trkpt>
      <trkpt lat="50.09843" lon="3.61272">
        <ele>147.22</ele>
        <time>2015-06-10T07:30:30Z</time>
      </trkpt>
      <trkpt lat="50.09828" lon="3.61359">
        <ele>146.74</ele>
        <time>2015-06-10T07:30:46Z</time>
      </trkpt>
      <trkpt lat="50.09825" lon="3.61379">
        <ele>148.18</ele>
        <time>2015-06-10T07:30:49Z</time>
      </trkpt>
      <trkpt lat="50.09805" lon="3.61434">
        <ele>148.66</ele>
        <time>2015-06-10T07:31:03Z</time>
      </trkpt>
      <trkpt lat="50.09764" lon="3.61484">
        <ele>148.66</ele>
        <time>2015-06-10T07:31:21Z</time>
      </trkpt>
      <trkpt lat="50.09746" lon="3.6149">
        <ele>148.66</ele>
        <time>2015-06-10T07:31:26Z</time>
      </trkpt>
      <trkpt lat="50.09743" lon="3.61488">
        <ele>148.66</ele>
        <time>2015-06-10T07:31:27Z</time>
      </trkpt>
      <trkpt lat="50.09717" lon="3.61428">
        <ele>148.66</ele>
        <time>2015-06-10T07:31:42Z</time>
      </trkpt>
      <trkpt lat="50.09713" lon="3.61425">
        <ele>148.66</ele>
        <time>2015-06-10T07:31:59Z</time>
      </trkpt>
      <trkpt lat="50.09711" lon="3.61428">
        <ele>149.14</ele>
        <time>2015-06-10T07:32:25Z</time>
      </trkpt>
      <trkpt lat="50.09711" lon="3.61426">
        <ele>149.14</ele>
        <time>2015-06-10T07:32:52Z</time>
      </trkpt>
      <trkpt lat="50.09703" lon="3.61402">
        <ele>149.62</ele>
        <time>2015-06-10T07:33:15Z</time>
      </trkpt>
      <trkpt lat="50.09681" lon="3.61331">
        <ele>149.62</ele>
        <time>2015-06-10T07:33:31Z</time>
      </trkpt>
      <trkpt lat="50.09653" lon="3.61222">
        <ele>150.1</ele>
        <time>2015-06-10T07:33:50Z</time>
      </trkpt>
      <trkpt lat="50.09639" lon="3.61175">
        <ele>146.74</ele>
        <time>2015-06-10T07:34:03Z</time>
      </trkpt>
      <trkpt lat="50.09638" lon="3.61171">
        <ele>152.99</ele>
        <time>2015-06-10T07:34:04Z</time>
      </trkpt>
      <trkpt lat="50.09633" lon="3.61156">
        <ele>149.62</ele>
        <time>2015-06-10T07:34:08Z</time>
      </trkpt>
      <trkpt lat="50.09611" lon="3.61069">
        <ele>146.74</ele>
        <time>2015-06-10T07:34:25Z</time>
      </trkpt>
      <trkpt lat="50.09584" lon="3.6095">
        <ele>144.34</ele>
        <time>2015-06-10T07:34:41Z</time>
      </trkpt>
      <trkpt lat="50.09603" lon="3.60903">
        <ele>145.78</ele>
        <time>2015-06-10T07:34:50Z</time>
      </trkpt>
      <trkpt lat="50.09646" lon="3.60877">
        <ele>149.14</ele>
        <time>2015-06-10T07:35:03Z</time>
      </trkpt>
      <trkpt lat="50.09692" lon="3.60824">
        <ele>149.62</ele>
        <time>2015-06-10T07:35:20Z</time>
      </trkpt>
      <trkpt lat="50.09725" lon="3.60714">
        <ele>150.1</ele>
        <time>2015-06-10T07:35:40Z</time>
      </trkpt>
      <trkpt lat="50.09741" lon="3.60658">
        <ele>148.66</ele>
        <time>2015-06-10T07:35:51Z</time>
      </trkpt>
      <trkpt lat="50.09789" lon="3.60561">
        <ele>147.7</ele>
        <time>2015-06-10T07:36:09Z</time>
      </trkpt>
      <trkpt lat="50.09828" lon="3.60557">
        <ele>147.7</ele>
        <time>2015-06-10T07:36:21Z</time>
      </trkpt>
      <trkpt lat="50.09869" lon="3.60507">
        <ele>147.7</ele>
        <time>2015-06-10T07:36:34Z</time>
      </trkpt>
      <trkpt lat="50.09896" lon="3.60444">
        <ele>146.26</ele>
        <time>2015-06-10T07:36:46Z</time>
      </trkpt>
      <trkpt lat="50.09896" lon="3.60439">
        <ele>146.26</ele>
        <time>2015-06-10T07:36:47Z</time>
      </trkpt>
      <trkpt lat="50.09892" lon="3.60419">
        <ele>144.82</ele>
        <time>2015-06-10T07:36:50Z</time>
      </trkpt>
      <trkpt lat="50.09891" lon="3.60412">
        <ele>144.82</ele>
        <time>2015-06-10T07:36:51Z</time>
      </trkpt>
      <trkpt lat="50.09891" lon="3.60405">
        <ele>144.82</ele>
        <time>2015-06-10T07:36:52Z</time>
      </trkpt>
      <trkpt lat="50.09891" lon="3.60397">
        <ele>143.85</ele>
        <time>2015-06-10T07:36:53Z</time>
      </trkpt>
      <trkpt lat="50.09891" lon="3.6039">
        <ele>143.85</ele>
        <time>2015-06-10T07:36:54Z</time>
      </trkpt>
      <trkpt lat="50.09892" lon="3.60383">
        <ele>143.85</ele>
        <time>2015-06-10T07:36:55Z</time>
      </trkpt>
      <trkpt lat="50.09893" lon="3.60375">
        <ele>143.85</ele>
        <time>2015-06-10T07:36:56Z</time>
      </trkpt>
      <trkpt lat="50.09895" lon="3.60365">
        <ele>143.37</ele>
        <time>2015-06-10T07:36:57Z</time>
      </trkpt>
      <trkpt lat="50.09907" lon="3.60274">
        <ele>140.97</ele>
        <time>2015-06-10T07:37:08Z</time>
      </trkpt>
      <trkpt lat="50.09907" lon="3.60267">
        <ele>140.49</ele>
        <time>2015-06-10T07:37:09Z</time>
      </trkpt>
      <trkpt lat="50.09887" lon="3.60153">
        <ele>136.64</ele>
        <time>2015-06-10T07:37:22Z</time>
      </trkpt>
      <trkpt lat="50.09888" lon="3.60144">
        <ele>136.16</ele>
        <time>2015-06-10T07:37:23Z</time>
      </trkpt>
      <trkpt lat="50.0989" lon="3.60137">
        <ele>136.16</ele>
        <time>2015-06-10T07:37:24Z</time>
      </trkpt>
      <trkpt lat="50.09893" lon="3.60129">
        <ele>136.16</ele>
        <time>2015-06-10T07:37:25Z</time>
      </trkpt>
      <trkpt lat="50.09896" lon="3.60122">
        <ele>136.16</ele>
        <time>2015-06-10T07:37:26Z</time>
      </trkpt>
      <trkpt lat="50.09899" lon="3.60115">
        <ele>136.16</ele>
        <time>2015-06-10T07:37:27Z</time>
      </trkpt>
      <trkpt lat="50.09925" lon="3.6007">
        <ele>135.68</ele>
        <time>2015-06-10T07:37:38Z</time>
      </trkpt>
      <trkpt lat="50.09981" lon="3.59995">
        <ele>136.16</ele>
        <time>2015-06-10T07:37:57Z</time>
      </trkpt>
      <trkpt lat="50.10005" lon="3.59984">
        <ele>137.13</ele>
        <time>2015-06-10T07:38:05Z</time>
      </trkpt>
      <trkpt lat="50.10031" lon="3.59998">
        <ele>139.05</ele>
        <time>2015-06-10T07:38:20Z</time>
      </trkpt>
      <trkpt lat="50.10088" lon="3.60053">
        <ele>141.93</ele>
        <time>2015-06-10T07:38:38Z</time>
      </trkpt>
      <trkpt lat="50.10109" lon="3.60101">
        <ele>143.37</ele>
        <time>2015-06-10T07:38:53Z</time>
      </trkpt>
      <trkpt lat="50.10147" lon="3.60168">
        <ele>145.3</ele>
        <time>2015-06-10T07:39:12Z</time>
      </trkpt>
      <trkpt lat="50.10187" lon="3.60197">
        <ele>146.74</ele>
        <time>2015-06-10T07:39:31Z</time>
      </trkpt>
      <trkpt lat="50.10225" lon="3.60238">
        <ele>148.66</ele>
        <time>2015-06-10T07:39:48Z</time>
      </trkpt>
      <trkpt lat="50.10238" lon="3.60304">
        <ele>149.14</ele>
        <time>2015-06-10T07:40:07Z</time>
      </trkpt>
      <trkpt lat="50.10243" lon="3.60312">
        <ele>147.22</ele>
        <time>2015-06-10T07:40:10Z</time>
      </trkpt>
      <trkpt lat="50.10251" lon="3.60317">
        <ele>147.22</ele>
        <time>2015-06-10T07:40:13Z</time>
      </trkpt>
      <trkpt lat="50.10253" lon="3.60317">
        <ele>148.66</ele>
        <time>2015-06-10T07:40:14Z</time>
      </trkpt>
      <trkpt lat="50.10295" lon="3.60309">
        <ele>150.58</ele>
        <time>2015-06-10T07:40:32Z</time>
      </trkpt>
      <trkpt lat="50.10348" lon="3.60328">
        <ele>151.06</ele>
        <time>2015-06-10T07:40:50Z</time>
      </trkpt>
      <trkpt lat="50.10393" lon="3.60397">
        <ele>151.06</ele>
        <time>2015-06-10T07:41:07Z</time>
      </trkpt>
      <trkpt lat="50.10435" lon="3.60463">
        <ele>151.06</ele>
        <time>2015-06-10T07:41:23Z</time>
      </trkpt>
      <trkpt lat="50.10483" lon="3.60555">
        <ele>149.14</ele>
        <time>2015-06-10T07:41:41Z</time>
      </trkpt>
      <trkpt lat="50.1051" lon="3.60633">
        <ele>147.22</ele>
        <time>2015-06-10T07:41:57Z</time>
      </trkpt>
      <trkpt lat="50.10497" lon="3.607">
        <ele>145.78</ele>
        <time>2015-06-10T07:42:10Z</time>
      </trkpt>
      <trkpt lat="50.10467" lon="3.60772">
        <ele>145.3</ele>
        <time>2015-06-10T07:42:25Z</time>
      </trkpt>
      <trkpt lat="50.10465" lon="3.60787">
        <ele>145.3</ele>
        <time>2015-06-10T07:42:28Z</time>
      </trkpt>
      <trkpt lat="50.10466" lon="3.60792">
        <ele>144.82</ele>
        <time>2015-06-10T07:42:29Z</time>
      </trkpt>
      <trkpt lat="50.10466" lon="3.60826">
        <ele>144.34</ele>
        <time>2015-06-10T07:42:37Z</time>
      </trkpt>
      <trkpt lat="50.10508" lon="3.60881">
        <ele>143.85</ele>
        <time>2015-06-10T07:42:52Z</time>
      </trkpt>
      <trkpt lat="50.10541" lon="3.60932">
        <ele>142.41</ele>
        <time>2015-06-10T07:43:09Z</time>
      </trkpt>
      <trkpt lat="50.10563" lon="3.60967">
        <ele>141.93</ele>
        <time>2015-06-10T07:43:25Z</time>
      </trkpt>
      <trkpt lat="50.10579" lon="3.60994">
        <ele>141.93</ele>
        <time>2015-06-10T07:43:40Z</time>
      </trkpt>
      <trkpt lat="50.10579" lon="3.60991">
        <ele>141.93</ele>
        <time>2015-06-10T07:43:57Z</time>
      </trkpt>
      <trkpt lat="50.10578" lon="3.60987">
        <ele>141.93</ele>
        <time>2015-06-10T07:44:00Z</time>
      </trkpt>
      <trkpt lat="50.10564" lon="3.60955">
        <ele>141.93</ele>
        <time>2015-06-10T07:44:17Z</time>
      </trkpt>
      <trkpt lat="50.10561" lon="3.60928">
        <ele>141.93</ele>
        <time>2015-06-10T07:44:34Z</time>
      </trkpt>
      <trkpt lat="50.10572" lon="3.60927">
        <ele>141.93</ele>
        <time>2015-06-10T07:44:47Z</time>
      </trkpt>
      <trkpt lat="50.10578" lon="3.60915">
        <ele>141.93</ele>
        <time>2015-06-10T07:44:52Z</time>
      </trkpt>
      <trkpt lat="50.1059" lon="3.60851">
        <ele>141.93</ele>
        <time>2015-06-10T07:45:11Z</time>
      </trkpt>
      <trkpt lat="50.10601" lon="3.60775">
        <ele>143.37</ele>
        <time>2015-06-10T07:45:28Z</time>
      </trkpt>
      <trkpt lat="50.10618" lon="3.60678">
        <ele>144.34</ele>
        <time>2015-06-10T07:45:44Z</time>
      </trkpt>
      <trkpt lat="50.10644" lon="3.60599">
        <ele>143.85</ele>
        <time>2015-06-10T07:46:01Z</time>
      </trkpt>
      <trkpt lat="50.10684" lon="3.60483">
        <ele>145.3</ele>
        <time>2015-06-10T07:46:21Z</time>
      </trkpt>
      <trkpt lat="50.10725" lon="3.60398">
        <ele>145.3</ele>
        <time>2015-06-10T07:46:38Z</time>
      </trkpt>
      <trkpt lat="50.10774" lon="3.60339">
        <ele>146.26</ele>
        <time>2015-06-10T07:46:54Z</time>
      </trkpt>
      <trkpt lat="50.10805" lon="3.60287">
        <ele>147.22</ele>
        <time>2015-06-10T07:47:06Z</time>
      </trkpt>
      <trkpt lat="50.1085" lon="3.60274">
        <ele>148.66</ele>
        <time>2015-06-10T07:47:20Z</time>
      </trkpt>
      <trkpt lat="50.10904" lon="3.60292">
        <ele>151.06</ele>
        <time>2015-06-10T07:47:38Z</time>
      </trkpt>
      <trkpt lat="50.10965" lon="3.60323">
        <ele>153.47</ele>
        <time>2015-06-10T07:47:58Z</time>
      </trkpt>
      <trkpt lat="50.11012" lon="3.60318">
        <ele>155.39</ele>
        <time>2015-06-10T07:48:15Z</time>
      </trkpt>
      <trkpt lat="50.11071" lon="3.60265">
        <ele>155.87</ele>
        <time>2015-06-10T07:48:36Z</time>
      </trkpt>
      <trkpt lat="50.11108" lon="3.60163">
        <ele>155.87</ele>
        <time>2015-06-10T07:48:55Z</time>
      </trkpt>
      <trkpt lat="50.11158" lon="3.60082">
        <ele>154.43</ele>
        <time>2015-06-10T07:49:10Z</time>
      </trkpt>
      <trkpt lat="50.11188" lon="3.60069">
        <ele>153.95</ele>
        <time>2015-06-10T07:49:21Z</time>
      </trkpt>
      <trkpt lat="50.11232" lon="3.60045">
        <ele>152.51</ele>
        <time>2015-06-10T07:49:36Z</time>
      </trkpt>
      <trkpt lat="50.11248" lon="3.60044">
        <ele>151.54</ele>
        <time>2015-06-10T07:49:42Z</time>
      </trkpt>
      <trkpt lat="50.11249" lon="3.60046">
        <ele>152.03</ele>
        <time>2015-06-10T07:49:43Z</time>
      </trkpt>
      <trkpt lat="50.1125" lon="3.60049">
        <ele>151.54</ele>
        <time>2015-06-10T07:49:44Z</time>
      </trkpt>
      <trkpt lat="50.11251" lon="3.60055">
        <ele>151.06</ele>
        <time>2015-06-10T07:49:45Z</time>
      </trkpt>
      <trkpt lat="50.11252" lon="3.6006">
        <ele>151.06</ele>
        <time>2015-06-10T07:49:46Z</time>
      </trkpt>
      <trkpt lat="50.11252" lon="3.60066">
        <ele>151.06</ele>
        <time>2015-06-10T07:49:47Z</time>
      </trkpt>
      <trkpt lat="50.11251" lon="3.60072">
        <ele>151.06</ele>
        <time>2015-06-10T07:49:48Z</time>
      </trkpt>
      <trkpt lat="50.11251" lon="3.60078">
        <ele>150.58</ele>
        <time>2015-06-10T07:49:49Z</time>
      </trkpt>
      <trkpt lat="50.11248" lon="3.60171">
        <ele>151.54</ele>
        <time>2015-06-10T07:50:04Z</time>
      </trkpt>
      <trkpt lat="50.11251" lon="3.60207">
        <ele>152.99</ele>
        <time>2015-06-10T07:50:15Z</time>
      </trkpt>
      <trkpt lat="50.11253" lon="3.60207">
        <ele>152.99</ele>
        <time>2015-06-10T07:50:16Z</time>
      </trkpt>
      <trkpt lat="50.11298" lon="3.60207">
        <ele>152.99</ele>
        <time>2015-06-10T07:50:32Z</time>
      </trkpt>
      <trkpt lat="50.11307" lon="3.60206">
        <ele>151.54</ele>
        <time>2015-06-10T07:50:35Z</time>
      </trkpt>
      <trkpt lat="50.1137" lon="3.60211">
        <ele>149.14</ele>
        <time>2015-06-10T07:50:52Z</time>
      </trkpt>
      <trkpt lat="50.11372" lon="3.60219">
        <ele>149.62</ele>
        <time>2015-06-10T07:51:13Z</time>
      </trkpt>
      <trkpt lat="50.11382" lon="3.60224">
        <ele>149.62</ele>
        <time>2015-06-10T07:51:29Z</time>
      </trkpt>
      <trkpt lat="50.11417" lon="3.60244">
        <ele>149.62</ele>
        <time>2015-06-10T07:51:42Z</time>
      </trkpt>
      <trkpt lat="50.11444" lon="3.60249">
        <ele>151.06</ele>
        <time>2015-06-10T07:51:57Z</time>
      </trkpt>
      <trkpt lat="50.11452" lon="3.60232">
        <ele>149.62</ele>
        <time>2015-06-10T07:52:01Z</time>
      </trkpt>
      <trkpt lat="50.11463" lon="3.60196">
        <ele>148.66</ele>
        <time>2015-06-10T07:52:06Z</time>
      </trkpt>
      <trkpt lat="50.11465" lon="3.60187">
        <ele>148.18</ele>
        <time>2015-06-10T07:52:07Z</time>
      </trkpt>
      <trkpt lat="50.11483" lon="3.60165">
        <ele>148.18</ele>
        <time>2015-06-10T07:52:12Z</time>
      </trkpt>
      <trkpt lat="50.11518" lon="3.6019">
        <ele>150.1</ele>
        <time>2015-06-10T07:52:26Z</time>
      </trkpt>
      <trkpt lat="50.11538" lon="3.60229">
        <ele>151.06</ele>
        <time>2015-06-10T07:52:38Z</time>
      </trkpt>
      <trkpt lat="50.11547" lon="3.60256">
        <ele>152.03</ele>
        <time>2015-06-10T07:52:45Z</time>
      </trkpt>
      <trkpt lat="50.11549" lon="3.60258">
        <ele>152.03</ele>
        <time>2015-06-10T07:52:46Z</time>
      </trkpt>
      <trkpt lat="50.1155" lon="3.60262">
        <ele>152.03</ele>
        <time>2015-06-10T07:52:47Z</time>
      </trkpt>
      <trkpt lat="50.11552" lon="3.60265">
        <ele>152.51</ele>
        <time>2015-06-10T07:52:48Z</time>
      </trkpt>
      <trkpt lat="50.11553" lon="3.60268">
        <ele>152.03</ele>
        <time>2015-06-10T07:52:49Z</time>
      </trkpt>
      <trkpt lat="50.11556" lon="3.60271">
        <ele>152.03</ele>
        <time>2015-06-10T07:52:50Z</time>
      </trkpt>
      <trkpt lat="50.11574" lon="3.60308">
        <ele>151.06</ele>
        <time>2015-06-10T07:52:58Z</time>
      </trkpt>
      <trkpt lat="50.11588" lon="3.60342">
        <ele>150.58</ele>
        <time>2015-06-10T07:53:06Z</time>
      </trkpt>
      <trkpt lat="50.11592" lon="3.60343">
        <ele>150.58</ele>
        <time>2015-06-10T07:53:07Z</time>
      </trkpt>
      <trkpt lat="50.11595" lon="3.60345">
        <ele>150.1</ele>
        <time>2015-06-10T07:53:08Z</time>
      </trkpt>
      <trkpt lat="50.11622" lon="3.60373">
        <ele>150.1</ele>
        <time>2015-06-10T07:53:18Z</time>
      </trkpt>
      <trkpt lat="50.11647" lon="3.60408">
        <ele>153.47</ele>
        <time>2015-06-10T07:53:29Z</time>
      </trkpt>
      <trkpt lat="50.1167" lon="3.6044">
        <ele>154.43</ele>
        <time>2015-06-10T07:53:40Z</time>
      </trkpt>
      <trkpt lat="50.1168" lon="3.60457">
        <ele>154.91</ele>
        <time>2015-06-10T07:53:45Z</time>
      </trkpt>
      <trkpt lat="50.11683" lon="3.60458">
        <ele>154.91</ele>
        <time>2015-06-10T07:53:46Z</time>
      </trkpt>
      <trkpt lat="50.11685" lon="3.6046">
        <ele>154.91</ele>
        <time>2015-06-10T07:53:47Z</time>
      </trkpt>
      <trkpt lat="50.11687" lon="3.60463">
        <ele>154.91</ele>
        <time>2015-06-10T07:53:48Z</time>
      </trkpt>
      <trkpt lat="50.11688" lon="3.60467">
        <ele>154.91</ele>
        <time>2015-06-10T07:53:49Z</time>
      </trkpt>
      <trkpt lat="50.1169" lon="3.60472">
        <ele>154.91</ele>
        <time>2015-06-10T07:53:50Z</time>
      </trkpt>
      <trkpt lat="50.11692" lon="3.60475">
        <ele>154.91</ele>
        <time>2015-06-10T07:53:51Z</time>
      </trkpt>
      <trkpt lat="50.11694" lon="3.60479">
        <ele>154.91</ele>
        <time>2015-06-10T07:53:52Z</time>
      </trkpt>
      <trkpt lat="50.11696" lon="3.60482">
        <ele>154.91</ele>
        <time>2015-06-10T07:53:53Z</time>
      </trkpt>
      <trkpt lat="50.11699" lon="3.60485">
        <ele>154.91</ele>
        <time>2015-06-10T07:53:54Z</time>
      </trkpt>
      <trkpt lat="50.11701" lon="3.60488">
        <ele>154.91</ele>
        <time>2015-06-10T07:53:55Z</time>
      </trkpt>
      <trkpt lat="50.11727" lon="3.60531">
        <ele>155.39</ele>
        <time>2015-06-10T07:54:07Z</time>
      </trkpt>
      <trkpt lat="50.11739" lon="3.60546">
        <ele>153.95</ele>
        <time>2015-06-10T07:54:12Z</time>
      </trkpt>
      <trkpt lat="50.11742" lon="3.60545">
        <ele>153.95</ele>
        <time>2015-06-10T07:54:13Z</time>
      </trkpt>
      <trkpt lat="50.11745" lon="3.60545">
        <ele>153.95</ele>
        <time>2015-06-10T07:54:14Z</time>
      </trkpt>
      <trkpt lat="50.11748" lon="3.60547">
        <ele>153.95</ele>
        <time>2015-06-10T07:54:15Z</time>
      </trkpt>
      <trkpt lat="50.11752" lon="3.60549">
        <ele>153.95</ele>
        <time>2015-06-10T07:54:16Z</time>
      </trkpt>
      <trkpt lat="50.11755" lon="3.60553">
        <ele>153.95</ele>
        <time>2015-06-10T07:54:17Z</time>
      </trkpt>
      <trkpt lat="50.11757" lon="3.60558">
        <ele>153.95</ele>
        <time>2015-06-10T07:54:18Z</time>
      </trkpt>
      <trkpt lat="50.1176" lon="3.60562">
        <ele>153.95</ele>
        <time>2015-06-10T07:54:19Z</time>
      </trkpt>
      <trkpt lat="50.11763" lon="3.60566">
        <ele>153.47</ele>
        <time>2015-06-10T07:54:20Z</time>
      </trkpt>
      <trkpt lat="50.118" lon="3.60604">
        <ele>152.03</ele>
        <time>2015-06-10T07:54:31Z</time>
      </trkpt>
      <trkpt lat="50.11824" lon="3.60632">
        <ele>150.58</ele>
        <time>2015-06-10T07:54:38Z</time>
      </trkpt>
      <trkpt lat="50.11828" lon="3.60636">
        <ele>150.1</ele>
        <time>2015-06-10T07:54:39Z</time>
      </trkpt>
      <trkpt lat="50.11842" lon="3.60648">
        <ele>150.1</ele>
        <time>2015-06-10T07:54:43Z</time>
      </trkpt>
      <trkpt lat="50.11846" lon="3.60648">
        <ele>150.1</ele>
        <time>2015-06-10T07:54:44Z</time>
      </trkpt>
      <trkpt lat="50.11851" lon="3.60645">
        <ele>150.1</ele>
        <time>2015-06-10T07:54:45Z</time>
      </trkpt>
      <trkpt lat="50.11856" lon="3.60642">
        <ele>150.1</ele>
        <time>2015-06-10T07:54:46Z</time>
      </trkpt>
      <trkpt lat="50.11862" lon="3.6064">
        <ele>150.1</ele>
        <time>2015-06-10T07:54:47Z</time>
      </trkpt>
      <trkpt lat="50.11866" lon="3.60636">
        <ele>150.1</ele>
        <time>2015-06-10T07:54:48Z</time>
      </trkpt>
      <trkpt lat="50.11878" lon="3.60615">
        <ele>150.1</ele>
        <time>2015-06-10T07:54:52Z</time>
      </trkpt>
      <trkpt lat="50.11896" lon="3.6057">
        <ele>149.62</ele>
        <time>2015-06-10T07:55:00Z</time>
      </trkpt>
      <trkpt lat="50.11911" lon="3.60511">
        <ele>149.62</ele>
        <time>2015-06-10T07:55:11Z</time>
      </trkpt>
      <trkpt lat="50.11918" lon="3.60476">
        <ele>149.14</ele>
        <time>2015-06-10T07:55:17Z</time>
      </trkpt>
      <trkpt lat="50.11919" lon="3.60469">
        <ele>149.14</ele>
        <time>2015-06-10T07:55:18Z</time>
      </trkpt>
      <trkpt lat="50.11921" lon="3.60463">
        <ele>149.14</ele>
        <time>2015-06-10T07:55:19Z</time>
      </trkpt>
      <trkpt lat="50.11929" lon="3.60425">
        <ele>148.66</ele>
        <time>2015-06-10T07:55:25Z</time>
      </trkpt>
      <trkpt lat="50.1193" lon="3.60365">
        <ele>148.66</ele>
        <time>2015-06-10T07:55:34Z</time>
      </trkpt>
      <trkpt lat="50.1193" lon="3.60325">
        <ele>148.66</ele>
        <time>2015-06-10T07:55:40Z</time>
      </trkpt>
      <trkpt lat="50.11928" lon="3.60297">
        <ele>148.66</ele>
        <time>2015-06-10T07:55:44Z</time>
      </trkpt>
      <trkpt lat="50.11928" lon="3.6029">
        <ele>148.66</ele>
        <time>2015-06-10T07:55:45Z</time>
      </trkpt>
      <trkpt lat="50.11927" lon="3.60283">
        <ele>148.66</ele>
        <time>2015-06-10T07:55:46Z</time>
      </trkpt>
      <trkpt lat="50.11921" lon="3.60228">
        <ele>148.66</ele>
        <time>2015-06-10T07:55:54Z</time>
      </trkpt>
      <trkpt lat="50.11922" lon="3.60213">
        <ele>148.66</ele>
        <time>2015-06-10T07:55:56Z</time>
      </trkpt>
      <trkpt lat="50.11931" lon="3.60129">
        <ele>147.7</ele>
        <time>2015-06-10T07:56:07Z</time>
      </trkpt>
      <trkpt lat="50.11932" lon="3.60113">
        <ele>147.7</ele>
        <time>2015-06-10T07:56:09Z</time>
      </trkpt>
      <trkpt lat="50.11949" lon="3.60068">
        <ele>146.74</ele>
        <time>2015-06-10T07:56:19Z</time>
      </trkpt>
      <trkpt lat="50.11974" lon="3.60049">
        <ele>146.74</ele>
        <time>2015-06-10T07:56:29Z</time>
      </trkpt>
      <trkpt lat="50.11985" lon="3.60041">
        <ele>148.18</ele>
        <time>2015-06-10T07:56:33Z</time>
      </trkpt>
      <trkpt lat="50.12018" lon="3.60022">
        <ele>150.58</ele>
        <time>2015-06-10T07:56:44Z</time>
      </trkpt>
      <trkpt lat="50.12054" lon="3.59998">
        <ele>151.54</ele>
        <time>2015-06-10T07:56:56Z</time>
      </trkpt>
      <trkpt lat="50.1208" lon="3.59981">
        <ele>152.99</ele>
        <time>2015-06-10T07:57:05Z</time>
      </trkpt>
      <trkpt lat="50.12111" lon="3.59964">
        <ele>154.43</ele>
        <time>2015-06-10T07:57:16Z</time>
      </trkpt>
      <trkpt lat="50.12137" lon="3.59939">
        <ele>154.91</ele>
        <time>2015-06-10T07:57:26Z</time>
      </trkpt>
      <trkpt lat="50.12138" lon="3.59931">
        <ele>154.91</ele>
        <time>2015-06-10T07:57:36Z</time>
      </trkpt>
      <trkpt lat="50.12137" lon="3.59927">
        <ele>155.87</ele>
        <time>2015-06-10T07:58:02Z</time>
      </trkpt>
      <trkpt lat="50.12138" lon="3.59929">
        <ele>155.87</ele>
        <time>2015-06-10T07:58:09Z</time>
      </trkpt>
      <trkpt lat="50.1214" lon="3.5994">
        <ele>155.87</ele>
        <time>2015-06-10T07:58:13Z</time>
      </trkpt>
      <trkpt lat="50.12142" lon="3.59949">
        <ele>155.87</ele>
        <time>2015-06-10T07:58:17Z</time>
      </trkpt>
      <trkpt lat="50.12148" lon="3.59962">
        <ele>155.87</ele>
        <time>2015-06-10T07:58:22Z</time>
      </trkpt>
      <trkpt lat="50.12166" lon="3.6">
        <ele>155.87</ele>
        <time>2015-06-10T07:58:35Z</time>
      </trkpt>
      <trkpt lat="50.12178" lon="3.60034">
        <ele>155.87</ele>
        <time>2015-06-10T07:58:45Z</time>
      </trkpt>
      <trkpt lat="50.12197" lon="3.60073">
        <ele>155.87</ele>
        <time>2015-06-10T07:58:56Z</time>
      </trkpt>
      <trkpt lat="50.12206" lon="3.60096">
        <ele>155.87</ele>
        <time>2015-06-10T07:59:01Z</time>
      </trkpt>
      <trkpt lat="50.12208" lon="3.601">
        <ele>155.87</ele>
        <time>2015-06-10T07:59:02Z</time>
      </trkpt>
      <trkpt lat="50.1221" lon="3.60105">
        <ele>155.87</ele>
        <time>2015-06-10T07:59:03Z</time>
      </trkpt>
      <trkpt lat="50.12212" lon="3.6011">
        <ele>155.87</ele>
        <time>2015-06-10T07:59:04Z</time>
      </trkpt>
      <trkpt lat="50.12215" lon="3.60114">
        <ele>155.87</ele>
        <time>2015-06-10T07:59:05Z</time>
      </trkpt>
      <trkpt lat="50.12217" lon="3.60118">
        <ele>155.87</ele>
        <time>2015-06-10T07:59:06Z</time>
      </trkpt>
      <trkpt lat="50.12218" lon="3.60122">
        <ele>155.87</ele>
        <time>2015-06-10T07:59:07Z</time>
      </trkpt>
      <trkpt lat="50.12237" lon="3.60164">
        <ele>155.87</ele>
        <time>2015-06-10T07:59:17Z</time>
      </trkpt>
      <trkpt lat="50.12249" lon="3.60188">
        <ele>155.87</ele>
        <time>2015-06-10T07:59:23Z</time>
      </trkpt>
      <trkpt lat="50.1225" lon="3.60191">
        <ele>155.87</ele>
        <time>2015-06-10T07:59:24Z</time>
      </trkpt>
      <trkpt lat="50.12252" lon="3.60195">
        <ele>155.87</ele>
        <time>2015-06-10T07:59:25Z</time>
      </trkpt>
      <trkpt lat="50.12254" lon="3.602">
        <ele>155.87</ele>
        <time>2015-06-10T07:59:26Z</time>
      </trkpt>
      <trkpt lat="50.12256" lon="3.60204">
        <ele>155.87</ele>
        <time>2015-06-10T07:59:27Z</time>
      </trkpt>
      <trkpt lat="50.12258" lon="3.60208">
        <ele>155.87</ele>
        <time>2015-06-10T07:59:28Z</time>
      </trkpt>
      <trkpt lat="50.1226" lon="3.60212">
        <ele>156.35</ele>
        <time>2015-06-10T07:59:29Z</time>
      </trkpt>
      <trkpt lat="50.12283" lon="3.60254">
        <ele>157.31</ele>
        <time>2015-06-10T07:59:40Z</time>
      </trkpt>
      <trkpt lat="50.12291" lon="3.60271">
        <ele>156.83</ele>
        <time>2015-06-10T07:59:45Z</time>
      </trkpt>
      <trkpt lat="50.12291" lon="3.60276">
        <ele>157.31</ele>
        <time>2015-06-10T07:59:46Z</time>
      </trkpt>
      <trkpt lat="50.12289" lon="3.60279">
        <ele>157.31</ele>
        <time>2015-06-10T07:59:47Z</time>
      </trkpt>
      <trkpt lat="50.12288" lon="3.60282">
        <ele>157.79</ele>
        <time>2015-06-10T07:59:48Z</time>
      </trkpt>
      <trkpt lat="50.12286" lon="3.60285">
        <ele>157.79</ele>
        <time>2015-06-10T07:59:49Z</time>
      </trkpt>
      <trkpt lat="50.12284" lon="3.60287">
        <ele>157.79</ele>
        <time>2015-06-10T07:59:50Z</time>
      </trkpt>
      <trkpt lat="50.12282" lon="3.6029">
        <ele>157.79</ele>
        <time>2015-06-10T07:59:51Z</time>
      </trkpt>
      <trkpt lat="50.12279" lon="3.60294">
        <ele>157.79</ele>
        <time>2015-06-10T07:59:52Z</time>
      </trkpt>
      <trkpt lat="50.12256" lon="3.60336">
        <ele>157.79</ele>
        <time>2015-06-10T08:00:04Z</time>
      </trkpt>
      <trkpt lat="50.1223" lon="3.60374">
        <ele>157.79</ele>
        <time>2015-06-10T08:00:16Z</time>
      </trkpt>
      <trkpt lat="50.12192" lon="3.60418">
        <ele>158.27</ele>
        <time>2015-06-10T08:00:29Z</time>
      </trkpt>
      <trkpt lat="50.12176" lon="3.60438">
        <ele>158.27</ele>
        <time>2015-06-10T08:00:34Z</time>
      </trkpt>
      <trkpt lat="50.12173" lon="3.60442">
        <ele>158.27</ele>
        <time>2015-06-10T08:00:35Z</time>
      </trkpt>
      <trkpt lat="50.1217" lon="3.60445">
        <ele>158.27</ele>
        <time>2015-06-10T08:00:36Z</time>
      </trkpt>
      <trkpt lat="50.12157" lon="3.60459">
        <ele>158.27</ele>
        <time>2015-06-10T08:00:40Z</time>
      </trkpt>
      <trkpt lat="50.12154" lon="3.60463">
        <ele>158.27</ele>
        <time>2015-06-10T08:00:41Z</time>
      </trkpt>
      <trkpt lat="50.12117" lon="3.60506">
        <ele>156.83</ele>
        <time>2015-06-10T08:00:53Z</time>
      </trkpt>
      <trkpt lat="50.12105" lon="3.60526">
        <ele>155.39</ele>
        <time>2015-06-10T08:00:58Z</time>
      </trkpt>
      <trkpt lat="50.12104" lon="3.60529">
        <ele>155.39</ele>
        <time>2015-06-10T08:00:59Z</time>
      </trkpt>
      <trkpt lat="50.12105" lon="3.60534">
        <ele>155.39</ele>
        <time>2015-06-10T08:01:02Z</time>
      </trkpt>
      <trkpt lat="50.12113" lon="3.60571">
        <ele>155.87</ele>
        <time>2015-06-10T08:01:14Z</time>
      </trkpt>
      <trkpt lat="50.12128" lon="3.6061">
        <ele>155.87</ele>
        <time>2015-06-10T08:01:25Z</time>
      </trkpt>
      <trkpt lat="50.12141" lon="3.60642">
        <ele>155.87</ele>
        <time>2015-06-10T08:01:35Z</time>
      </trkpt>
      <trkpt lat="50.12141" lon="3.60644">
        <ele>155.87</ele>
        <time>2015-06-10T08:01:36Z</time>
      </trkpt>
      <trkpt lat="50.12142" lon="3.60648">
        <ele>157.31</ele>
        <time>2015-06-10T08:01:37Z</time>
      </trkpt>
      <trkpt lat="50.12144" lon="3.60652">
        <ele>157.31</ele>
        <time>2015-06-10T08:01:38Z</time>
      </trkpt>
      <trkpt lat="50.12146" lon="3.60656">
        <ele>157.31</ele>
        <time>2015-06-10T08:01:39Z</time>
      </trkpt>
      <trkpt lat="50.12148" lon="3.60659">
        <ele>157.31</ele>
        <time>2015-06-10T08:01:40Z</time>
      </trkpt>
      <trkpt lat="50.12167" lon="3.60702">
        <ele>159.24</ele>
        <time>2015-06-10T08:01:52Z</time>
      </trkpt>
      <trkpt lat="50.12197" lon="3.60771">
        <ele>159.24</ele>
        <time>2015-06-10T08:02:13Z</time>
      </trkpt>
      <trkpt lat="50.12232" lon="3.60847">
        <ele>155.87</ele>
        <time>2015-06-10T08:02:34Z</time>
      </trkpt>
      <trkpt lat="50.12263" lon="3.60921">
        <ele>154.43</ele>
        <time>2015-06-10T08:02:54Z</time>
      </trkpt>
      <trkpt lat="50.12302" lon="3.6099">
        <ele>152.99</ele>
        <time>2015-06-10T08:03:10Z</time>
      </trkpt>
      <trkpt lat="50.12324" lon="3.6105">
        <ele>152.51</ele>
        <time>2015-06-10T08:03:27Z</time>
      </trkpt>
      <trkpt lat="50.12323" lon="3.61053">
        <ele>152.51</ele>
        <time>2015-06-10T08:03:28Z</time>
      </trkpt>
      <trkpt lat="50.12293" lon="3.61093">
        <ele>153.47</ele>
        <time>2015-06-10T08:03:48Z</time>
      </trkpt>
      <trkpt lat="50.1226" lon="3.61132">
        <ele>155.39</ele>
        <time>2015-06-10T08:04:09Z</time>
      </trkpt>
      <trkpt lat="50.12254" lon="3.61139">
        <ele>156.83</ele>
        <time>2015-06-10T08:04:13Z</time>
      </trkpt>
      <trkpt lat="50.12214" lon="3.6118">
        <ele>158.27</ele>
        <time>2015-06-10T08:04:37Z</time>
      </trkpt>
      <trkpt lat="50.1217" lon="3.61232">
        <ele>159.72</ele>
        <time>2015-06-10T08:05:01Z</time>
      </trkpt>
      <trkpt lat="50.12121" lon="3.6129">
        <ele>161.16</ele>
        <time>2015-06-10T08:05:24Z</time>
      </trkpt>
      <trkpt lat="50.12073" lon="3.61346">
        <ele>161.16</ele>
        <time>2015-06-10T08:05:45Z</time>
      </trkpt>
      <trkpt lat="50.12071" lon="3.6135">
        <ele>160.2</ele>
        <time>2015-06-10T08:05:46Z</time>
      </trkpt>
      <trkpt lat="50.12069" lon="3.61355">
        <ele>160.2</ele>
        <time>2015-06-10T08:05:47Z</time>
      </trkpt>
      <trkpt lat="50.12051" lon="3.6142">
        <ele>160.2</ele>
        <time>2015-06-10T08:06:01Z</time>
      </trkpt>
      <trkpt lat="50.12053" lon="3.61499">
        <ele>158.75</ele>
        <time>2015-06-10T08:06:16Z</time>
      </trkpt>
      <trkpt lat="50.12085" lon="3.61528">
        <ele>160.2</ele>
        <time>2015-06-10T08:06:25Z</time>
      </trkpt>
      <trkpt lat="50.1214" lon="3.61583">
        <ele>161.64</ele>
        <time>2015-06-10T08:06:44Z</time>
      </trkpt>
      <trkpt lat="50.122" lon="3.61642">
        <ele>162.6</ele>
        <time>2015-06-10T08:07:06Z</time>
      </trkpt>
      <trkpt lat="50.12202" lon="3.61649">
        <ele>162.6</ele>
        <time>2015-06-10T08:07:08Z</time>
      </trkpt>
      <trkpt lat="50.12202" lon="3.61653">
        <ele>162.6</ele>
        <time>2015-06-10T08:07:09Z</time>
      </trkpt>
      <trkpt lat="50.12201" lon="3.61656">
        <ele>162.6</ele>
        <time>2015-06-10T08:07:10Z</time>
      </trkpt>
      <trkpt lat="50.122" lon="3.61658">
        <ele>162.6</ele>
        <time>2015-06-10T08:07:11Z</time>
      </trkpt>
      <trkpt lat="50.12199" lon="3.6166">
        <ele>162.6</ele>
        <time>2015-06-10T08:07:12Z</time>
      </trkpt>
      <trkpt lat="50.12191" lon="3.61678">
        <ele>162.6</ele>
        <time>2015-06-10T08:07:31Z</time>
      </trkpt>
      <trkpt lat="50.12194" lon="3.61677">
        <ele>163.08</ele>
        <time>2015-06-10T08:08:02Z</time>
      </trkpt>
      <trkpt lat="50.12199" lon="3.61678">
        <ele>163.08</ele>
        <time>2015-06-10T08:08:18Z</time>
      </trkpt>
      <trkpt lat="50.122" lon="3.61676">
        <ele>163.08</ele>
        <time>2015-06-10T08:08:19Z</time>
      </trkpt>
      <trkpt lat="50.12201" lon="3.61674">
        <ele>163.08</ele>
        <time>2015-06-10T08:08:20Z</time>
      </trkpt>
      <trkpt lat="50.12201" lon="3.61671">
        <ele>163.08</ele>
        <time>2015-06-10T08:08:21Z</time>
      </trkpt>
      <trkpt lat="50.12202" lon="3.61668">
        <ele>163.08</ele>
        <time>2015-06-10T08:08:22Z</time>
      </trkpt>
      <trkpt lat="50.122" lon="3.61656">
        <ele>162.6</ele>
        <time>2015-06-10T08:08:36Z</time>
      </trkpt>
      <trkpt lat="50.12217" lon="3.61626">
        <ele>162.6</ele>
        <time>2015-06-10T08:08:48Z</time>
      </trkpt>
      <trkpt lat="50.12252" lon="3.6154">
        <ele>160.2</ele>
        <time>2015-06-10T08:09:04Z</time>
      </trkpt>
      <trkpt lat="50.12262" lon="3.61515">
        <ele>158.75</ele>
        <time>2015-06-10T08:09:07Z</time>
      </trkpt>
      <trkpt lat="50.12305" lon="3.61417">
        <ele>159.24</ele>
        <time>2015-06-10T08:09:21Z</time>
      </trkpt>
      <trkpt lat="50.12344" lon="3.61327">
        <ele>159.72</ele>
        <time>2015-06-10T08:09:42Z</time>
      </trkpt>
      <trkpt lat="50.12346" lon="3.61327">
        <ele>159.72</ele>
        <time>2015-06-10T08:09:44Z</time>
      </trkpt>
      <trkpt lat="50.12347" lon="3.61329">
        <ele>159.72</ele>
        <time>2015-06-10T08:09:45Z</time>
      </trkpt>
      <trkpt lat="50.12347" lon="3.61332">
        <ele>159.72</ele>
        <time>2015-06-10T08:09:46Z</time>
      </trkpt>
      <trkpt lat="50.12375" lon="3.61376">
        <ele>158.27</ele>
        <time>2015-06-10T08:09:59Z</time>
      </trkpt>
      <trkpt lat="50.12422" lon="3.61427">
        <ele>154.91</ele>
        <time>2015-06-10T08:10:17Z</time>
      </trkpt>
      <trkpt lat="50.12478" lon="3.61479">
        <ele>152.51</ele>
        <time>2015-06-10T08:10:33Z</time>
      </trkpt>
      <trkpt lat="50.12527" lon="3.61533">
        <ele>152.51</ele>
        <time>2015-06-10T08:10:53Z</time>
      </trkpt>
      <trkpt lat="50.12565" lon="3.61573">
        <ele>152.51</ele>
        <time>2015-06-10T08:11:11Z</time>
      </trkpt>
      <trkpt lat="50.12601" lon="3.61611">
        <ele>152.03</ele>
        <time>2015-06-10T08:11:29Z</time>
      </trkpt>
      <trkpt lat="50.12637" lon="3.61647">
        <ele>153.95</ele>
        <time>2015-06-10T08:11:50Z</time>
      </trkpt>
      <trkpt lat="50.12651" lon="3.61657">
        <ele>154.91</ele>
        <time>2015-06-10T08:12:04Z</time>
      </trkpt>
      <trkpt lat="50.12658" lon="3.61668">
        <ele>155.39</ele>
        <time>2015-06-10T08:12:23Z</time>
      </trkpt>
      <trkpt lat="50.12674" lon="3.61682">
        <ele>156.35</ele>
        <time>2015-06-10T08:12:40Z</time>
      </trkpt>
      <trkpt lat="50.12699" lon="3.61708">
        <ele>157.31</ele>
        <time>2015-06-10T08:13:06Z</time>
      </trkpt>
      <trkpt lat="50.12716" lon="3.61728">
        <ele>157.79</ele>
        <time>2015-06-10T08:13:27Z</time>
      </trkpt>
      <trkpt lat="50.12739" lon="3.61751">
        <ele>158.75</ele>
        <time>2015-06-10T08:13:51Z</time>
      </trkpt>
      <trkpt lat="50.12761" lon="3.61773">
        <ele>159.72</ele>
        <time>2015-06-10T08:14:13Z</time>
      </trkpt>
      <trkpt lat="50.12782" lon="3.61796">
        <ele>160.68</ele>
        <time>2015-06-10T08:14:35Z</time>
      </trkpt>
      <trkpt lat="50.12807" lon="3.61821">
        <ele>161.16</ele>
        <time>2015-06-10T08:14:59Z</time>
      </trkpt>
      <trkpt lat="50.12829" lon="3.61848">
        <ele>161.64</ele>
        <time>2015-06-10T08:15:23Z</time>
      </trkpt>
      <trkpt lat="50.12834" lon="3.61866">
        <ele>161.64</ele>
        <time>2015-06-10T08:15:36Z</time>
      </trkpt>
      <trkpt lat="50.12834" lon="3.61868">
        <ele>161.64</ele>
        <time>2015-06-10T08:15:37Z</time>
      </trkpt>
      <trkpt lat="50.12833" lon="3.61872">
        <ele>161.64</ele>
        <time>2015-06-10T08:15:38Z</time>
      </trkpt>
      <trkpt lat="50.12833" lon="3.61875">
        <ele>161.64</ele>
        <time>2015-06-10T08:15:39Z</time>
      </trkpt>
      <trkpt lat="50.12832" lon="3.61879">
        <ele>161.64</ele>
        <time>2015-06-10T08:15:40Z</time>
      </trkpt>
      <trkpt lat="50.12831" lon="3.61882">
        <ele>161.64</ele>
        <time>2015-06-10T08:15:41Z</time>
      </trkpt>
      <trkpt lat="50.12816" lon="3.61958">
        <ele>163.08</ele>
        <time>2015-06-10T08:16:00Z</time>
      </trkpt>
      <trkpt lat="50.12807" lon="3.62012">
        <ele>163.08</ele>
        <time>2015-06-10T08:16:18Z</time>
      </trkpt>
      <trkpt lat="50.12795" lon="3.621">
        <ele>163.08</ele>
        <time>2015-06-10T08:16:36Z</time>
      </trkpt>
      <trkpt lat="50.12779" lon="3.62183">
        <ele>163.08</ele>
        <time>2015-06-10T08:16:54Z</time>
      </trkpt>
      <trkpt lat="50.12764" lon="3.6226">
        <ele>163.08</ele>
        <time>2015-06-10T08:17:09Z</time>
      </trkpt>
      <trkpt lat="50.1275" lon="3.62346">
        <ele>161.64</ele>
        <time>2015-06-10T08:17:26Z</time>
      </trkpt>
      <trkpt lat="50.12733" lon="3.62423">
        <ele>161.16</ele>
        <time>2015-06-10T08:17:43Z</time>
      </trkpt>
      <trkpt lat="50.12719" lon="3.62512">
        <ele>163.08</ele>
        <time>2015-06-10T08:18:02Z</time>
      </trkpt>
      <trkpt lat="50.1272" lon="3.62586">
        <ele>163.56</ele>
        <time>2015-06-10T08:18:21Z</time>
      </trkpt>
      <trkpt lat="50.12741" lon="3.62628">
        <ele>164.52</ele>
        <time>2015-06-10T08:18:33Z</time>
      </trkpt>
      <trkpt lat="50.12742" lon="3.62681">
        <ele>164.52</ele>
        <time>2015-06-10T08:18:45Z</time>
      </trkpt>
      <trkpt lat="50.12731" lon="3.62719">
        <ele>163.08</ele>
        <time>2015-06-10T08:18:53Z</time>
      </trkpt>
      <trkpt lat="50.12712" lon="3.62795">
        <ele>163.08</ele>
        <time>2015-06-10T08:19:08Z</time>
      </trkpt>
      <trkpt lat="50.12713" lon="3.62897">
        <ele>163.08</ele>
        <time>2015-06-10T08:19:25Z</time>
      </trkpt>
      <trkpt lat="50.12694" lon="3.62944">
        <ele>161.64</ele>
        <time>2015-06-10T08:19:34Z</time>
      </trkpt>
      <trkpt lat="50.12691" lon="3.62949">
        <ele>161.64</ele>
        <time>2015-06-10T08:19:35Z</time>
      </trkpt>
      <trkpt lat="50.12687" lon="3.62953">
        <ele>161.16</ele>
        <time>2015-06-10T08:19:36Z</time>
      </trkpt>
      <trkpt lat="50.12682" lon="3.62958">
        <ele>161.16</ele>
        <time>2015-06-10T08:19:37Z</time>
      </trkpt>
      <trkpt lat="50.12677" lon="3.62962">
        <ele>161.16</ele>
        <time>2015-06-10T08:19:38Z</time>
      </trkpt>
      <trkpt lat="50.12657" lon="3.62975">
        <ele>159.72</ele>
        <time>2015-06-10T08:19:42Z</time>
      </trkpt>
      <trkpt lat="50.12652" lon="3.62976">
        <ele>159.24</ele>
        <time>2015-06-10T08:19:43Z</time>
      </trkpt>
      <trkpt lat="50.12646" lon="3.62976">
        <ele>159.24</ele>
        <time>2015-06-10T08:19:44Z</time>
      </trkpt>
      <trkpt lat="50.12642" lon="3.62974">
        <ele>159.24</ele>
        <time>2015-06-10T08:19:45Z</time>
      </trkpt>
      <trkpt lat="50.12637" lon="3.62972">
        <ele>159.24</ele>
        <time>2015-06-10T08:19:46Z</time>
      </trkpt>
      <trkpt lat="50.12633" lon="3.62968">
        <ele>159.24</ele>
        <time>2015-06-10T08:19:47Z</time>
      </trkpt>
      <trkpt lat="50.12628" lon="3.62964">
        <ele>159.24</ele>
        <time>2015-06-10T08:19:48Z</time>
      </trkpt>
      <trkpt lat="50.12625" lon="3.62961">
        <ele>159.24</ele>
        <time>2015-06-10T08:19:49Z</time>
      </trkpt>
      <trkpt lat="50.12622" lon="3.62957">
        <ele>159.24</ele>
        <time>2015-06-10T08:19:50Z</time>
      </trkpt>
      <trkpt lat="50.12619" lon="3.62952">
        <ele>159.24</ele>
        <time>2015-06-10T08:19:51Z</time>
      </trkpt>
      <trkpt lat="50.12616" lon="3.62948">
        <ele>158.75</ele>
        <time>2015-06-10T08:19:52Z</time>
      </trkpt>
      <trkpt lat="50.12613" lon="3.62944">
        <ele>158.75</ele>
        <time>2015-06-10T08:19:53Z</time>
      </trkpt>
      <trkpt lat="50.12568" lon="3.62906">
        <ele>158.75</ele>
        <time>2015-06-10T08:20:08Z</time>
      </trkpt>
      <trkpt lat="50.12555" lon="3.62953">
        <ele>157.31</ele>
        <time>2015-06-10T08:20:18Z</time>
      </trkpt>
      <trkpt lat="50.12555" lon="3.62959">
        <ele>157.31</ele>
        <time>2015-06-10T08:20:19Z</time>
      </trkpt>
      <trkpt lat="50.12544" lon="3.63019">
        <ele>155.39</ele>
        <time>2015-06-10T08:20:30Z</time>
      </trkpt>
      <trkpt lat="50.12522" lon="3.63055">
        <ele>154.43</ele>
        <time>2015-06-10T08:20:42Z</time>
      </trkpt>
      <trkpt lat="50.12488" lon="3.63079">
        <ele>156.35</ele>
        <time>2015-06-10T08:20:52Z</time>
      </trkpt>
      <trkpt lat="50.12417" lon="3.63132">
        <ele>158.75</ele>
        <time>2015-06-10T08:21:15Z</time>
      </trkpt>
      <trkpt lat="50.12363" lon="3.63146">
        <ele>158.75</ele>
        <time>2015-06-10T08:21:32Z</time>
      </trkpt>
      <trkpt lat="50.12301" lon="3.63123">
        <ele>156.83</ele>
        <time>2015-06-10T08:21:50Z</time>
      </trkpt>
      <trkpt lat="50.12242" lon="3.63105">
        <ele>155.87</ele>
        <time>2015-06-10T08:22:07Z</time>
      </trkpt>
      <trkpt lat="50.1221" lon="3.63134">
        <ele>154.43</ele>
        <time>2015-06-10T08:22:19Z</time>
      </trkpt>
      <trkpt lat="50.12209" lon="3.63169">
        <ele>154.43</ele>
        <time>2015-06-10T08:22:29Z</time>
      </trkpt>
      <trkpt lat="50.12253" lon="3.63222">
        <ele>154.43</ele>
        <time>2015-06-10T08:22:47Z</time>
      </trkpt>
      <trkpt lat="50.1229" lon="3.63304">
        <ele>153.47</ele>
        <time>2015-06-10T08:23:05Z</time>
      </trkpt>
      <trkpt lat="50.12289" lon="3.63371">
        <ele>152.99</ele>
        <time>2015-06-10T08:23:17Z</time>
      </trkpt>
      <trkpt lat="50.12257" lon="3.63425">
        <ele>152.99</ele>
        <time>2015-06-10T08:23:31Z</time>
      </trkpt>
      <trkpt lat="50.12243" lon="3.63449">
        <ele>152.99</ele>
        <time>2015-06-10T08:23:48Z</time>
      </trkpt>
      <trkpt lat="50.12244" lon="3.63454">
        <ele>152.51</ele>
        <time>2015-06-10T08:24:00Z</time>
      </trkpt>
      <trkpt lat="50.12273" lon="3.63479">
        <ele>152.51</ele>
        <time>2015-06-10T08:24:11Z</time>
      </trkpt>
      <trkpt lat="50.12324" lon="3.63519">
        <ele>152.51</ele>
        <time>2015-06-10T08:24:26Z</time>
      </trkpt>
      <trkpt lat="50.1236" lon="3.63551">
        <ele>153.95</ele>
        <time>2015-06-10T08:24:38Z</time>
      </trkpt>
      <trkpt lat="50.12411" lon="3.63597">
        <ele>155.39</ele>
        <time>2015-06-10T08:24:52Z</time>
      </trkpt>
      <trkpt lat="50.12477" lon="3.63655">
        <ele>156.35</ele>
        <time>2015-06-10T08:25:12Z</time>
      </trkpt>
      <trkpt lat="50.12556" lon="3.63729">
        <ele>156.35</ele>
        <time>2015-06-10T08:25:34Z</time>
      </trkpt>
      <trkpt lat="50.12595" lon="3.63768">
        <ele>156.35</ele>
        <time>2015-06-10T08:25:45Z</time>
      </trkpt>
      <trkpt lat="50.12647" lon="3.63809">
        <ele>157.79</ele>
        <time>2015-06-10T08:26:00Z</time>
      </trkpt>
      <trkpt lat="50.12699" lon="3.63837">
        <ele>158.75</ele>
        <time>2015-06-10T08:26:15Z</time>
      </trkpt>
      <trkpt lat="50.12755" lon="3.63859">
        <ele>158.75</ele>
        <time>2015-06-10T08:26:30Z</time>
      </trkpt>
      <trkpt lat="50.12812" lon="3.63882">
        <ele>159.72</ele>
        <time>2015-06-10T08:26:46Z</time>
      </trkpt>
      <trkpt lat="50.12872" lon="3.63898">
        <ele>159.72</ele>
        <time>2015-06-10T08:27:01Z</time>
      </trkpt>
      <trkpt lat="50.12948" lon="3.63927">
        <ele>156.35</ele>
        <time>2015-06-10T08:27:17Z</time>
      </trkpt>
      <trkpt lat="50.13021" lon="3.63947">
        <ele>155.87</ele>
        <time>2015-06-10T08:27:31Z</time>
      </trkpt>
      <trkpt lat="50.13051" lon="3.63954">
        <ele>155.87</ele>
        <time>2015-06-10T08:27:37Z</time>
      </trkpt>
      <trkpt lat="50.13055" lon="3.63958">
        <ele>155.87</ele>
        <time>2015-06-10T08:27:38Z</time>
      </trkpt>
      <trkpt lat="50.13059" lon="3.63964">
        <ele>155.87</ele>
        <time>2015-06-10T08:27:39Z</time>
      </trkpt>
      <trkpt lat="50.1306" lon="3.63973">
        <ele>155.87</ele>
        <time>2015-06-10T08:27:40Z</time>
      </trkpt>
      <trkpt lat="50.1306" lon="3.6398">
        <ele>155.87</ele>
        <time>2015-06-10T08:27:41Z</time>
      </trkpt>
      <trkpt lat="50.13058" lon="3.63988">
        <ele>155.87</ele>
        <time>2015-06-10T08:27:42Z</time>
      </trkpt>
      <trkpt lat="50.13056" lon="3.63996">
        <ele>155.87</ele>
        <time>2015-06-10T08:27:43Z</time>
      </trkpt>
      <trkpt lat="50.1305" lon="3.64028">
        <ele>155.87</ele>
        <time>2015-06-10T08:27:47Z</time>
      </trkpt>
      <trkpt lat="50.1305" lon="3.64037">
        <ele>155.87</ele>
        <time>2015-06-10T08:27:48Z</time>
      </trkpt>
      <trkpt lat="50.13075" lon="3.64164">
        <ele>155.87</ele>
        <time>2015-06-10T08:28:02Z</time>
      </trkpt>
      <trkpt lat="50.1309" lon="3.64233">
        <ele>155.87</ele>
        <time>2015-06-10T08:28:09Z</time>
      </trkpt>
      <trkpt lat="50.13092" lon="3.64242">
        <ele>155.87</ele>
        <time>2015-06-10T08:28:10Z</time>
      </trkpt>
      <trkpt lat="50.13094" lon="3.64262">
        <ele>155.87</ele>
        <time>2015-06-10T08:28:12Z</time>
      </trkpt>
      <trkpt lat="50.13094" lon="3.64271">
        <ele>155.87</ele>
        <time>2015-06-10T08:28:13Z</time>
      </trkpt>
      <trkpt lat="50.13093" lon="3.64281">
        <ele>155.87</ele>
        <time>2015-06-10T08:28:14Z</time>
      </trkpt>
      <trkpt lat="50.13091" lon="3.6429">
        <ele>155.87</ele>
        <time>2015-06-10T08:28:15Z</time>
      </trkpt>
      <trkpt lat="50.13087" lon="3.64296">
        <ele>155.87</ele>
        <time>2015-06-10T08:28:16Z</time>
      </trkpt>
      <trkpt lat="50.13082" lon="3.64301">
        <ele>155.87</ele>
        <time>2015-06-10T08:28:17Z</time>
      </trkpt>
      <trkpt lat="50.13077" lon="3.64305">
        <ele>155.87</ele>
        <time>2015-06-10T08:28:18Z</time>
      </trkpt>
      <trkpt lat="50.13072" lon="3.64307">
        <ele>155.87</ele>
        <time>2015-06-10T08:28:19Z</time>
      </trkpt>
      <trkpt lat="50.1304" lon="3.64321">
        <ele>155.87</ele>
        <time>2015-06-10T08:28:26Z</time>
      </trkpt>
      <trkpt lat="50.13019" lon="3.64329">
        <ele>155.87</ele>
        <time>2015-06-10T08:28:31Z</time>
      </trkpt>
      <trkpt lat="50.13009" lon="3.64332">
        <ele>155.87</ele>
        <time>2015-06-10T08:28:33Z</time>
      </trkpt>
      <trkpt lat="50.12967" lon="3.64351">
        <ele>157.31</ele>
        <time>2015-06-10T08:28:42Z</time>
      </trkpt>
      <trkpt lat="50.12962" lon="3.64352">
        <ele>157.31</ele>
        <time>2015-06-10T08:28:43Z</time>
      </trkpt>
      <trkpt lat="50.12933" lon="3.64364">
        <ele>157.79</ele>
        <time>2015-06-10T08:28:50Z</time>
      </trkpt>
      <trkpt lat="50.12922" lon="3.64368">
        <ele>157.79</ele>
        <time>2015-06-10T08:28:58Z</time>
      </trkpt>
      <trkpt lat="50.12922" lon="3.64367">
        <ele>157.79</ele>
        <time>2015-06-10T08:29:22Z</time>
      </trkpt>
      <trkpt lat="50.12923" lon="3.64366">
        <ele>157.79</ele>
        <time>2015-06-10T08:29:54Z</time>
      </trkpt>
      <trkpt lat="50.12921" lon="3.64367">
        <ele>157.79</ele>
        <time>2015-06-10T08:29:57Z</time>
      </trkpt>
      <trkpt lat="50.12919" lon="3.64368">
        <ele>157.79</ele>
        <time>2015-06-10T08:29:58Z</time>
      </trkpt>
      <trkpt lat="50.12918" lon="3.6437">
        <ele>157.79</ele>
        <time>2015-06-10T08:29:59Z</time>
      </trkpt>
      <trkpt lat="50.12882" lon="3.64385">
        <ele>157.79</ele>
        <time>2015-06-10T08:30:10Z</time>
      </trkpt>
      <trkpt lat="50.12877" lon="3.64387">
        <ele>157.79</ele>
        <time>2015-06-10T08:30:11Z</time>
      </trkpt>
      <trkpt lat="50.12855" lon="3.64398">
        <ele>158.75</ele>
        <time>2015-06-10T08:30:16Z</time>
      </trkpt>
      <trkpt lat="50.1285" lon="3.64401">
        <ele>159.24</ele>
        <time>2015-06-10T08:30:17Z</time>
      </trkpt>
      <trkpt lat="50.12846" lon="3.64403">
        <ele>159.24</ele>
        <time>2015-06-10T08:30:18Z</time>
      </trkpt>
      <trkpt lat="50.12839" lon="3.64408">
        <ele>159.72</ele>
        <time>2015-06-10T08:30:20Z</time>
      </trkpt>
      <trkpt lat="50.1279" lon="3.64448">
        <ele>161.64</ele>
        <time>2015-06-10T08:30:33Z</time>
      </trkpt>
      <trkpt lat="50.12763" lon="3.6447">
        <ele>161.64</ele>
        <time>2015-06-10T08:30:41Z</time>
      </trkpt>
      <trkpt lat="50.12728" lon="3.64498">
        <ele>161.64</ele>
        <time>2015-06-10T08:30:50Z</time>
      </trkpt>
      <trkpt lat="50.12722" lon="3.64508">
        <ele>160.2</ele>
        <time>2015-06-10T08:30:53Z</time>
      </trkpt>
      <trkpt lat="50.12723" lon="3.6451">
        <ele>160.2</ele>
        <time>2015-06-10T08:30:54Z</time>
      </trkpt>
      <trkpt lat="50.12725" lon="3.6451">
        <ele>160.2</ele>
        <time>2015-06-10T08:30:55Z</time>
      </trkpt>
      <trkpt lat="50.12727" lon="3.64512">
        <ele>159.72</ele>
        <time>2015-06-10T08:30:56Z</time>
      </trkpt>
      <trkpt lat="50.12729" lon="3.64515">
        <ele>159.72</ele>
        <time>2015-06-10T08:30:57Z</time>
      </trkpt>
      <trkpt lat="50.12731" lon="3.6452">
        <ele>159.72</ele>
        <time>2015-06-10T08:30:58Z</time>
      </trkpt>
      <trkpt lat="50.12733" lon="3.64525">
        <ele>159.24</ele>
        <time>2015-06-10T08:30:59Z</time>
      </trkpt>
      <trkpt lat="50.12736" lon="3.64531">
        <ele>159.24</ele>
        <time>2015-06-10T08:31:00Z</time>
      </trkpt>
      <trkpt lat="50.12741" lon="3.64544">
        <ele>159.24</ele>
        <time>2015-06-10T08:31:02Z</time>
      </trkpt>
      <trkpt lat="50.12748" lon="3.64563">
        <ele>158.75</ele>
        <time>2015-06-10T08:31:05Z</time>
      </trkpt>
      <trkpt lat="50.12751" lon="3.6457">
        <ele>158.75</ele>
        <time>2015-06-10T08:31:06Z</time>
      </trkpt>
      <trkpt lat="50.12753" lon="3.64577">
        <ele>158.75</ele>
        <time>2015-06-10T08:31:07Z</time>
      </trkpt>
      <trkpt lat="50.12792" lon="3.64672">
        <ele>157.79</ele>
        <time>2015-06-10T08:31:20Z</time>
      </trkpt>
      <trkpt lat="50.12828" lon="3.6477">
        <ele>156.83</ele>
        <time>2015-06-10T08:31:33Z</time>
      </trkpt>
      <trkpt lat="50.12831" lon="3.64778">
        <ele>156.83</ele>
        <time>2015-06-10T08:31:34Z</time>
      </trkpt>
      <trkpt lat="50.12851" lon="3.6483">
        <ele>156.35</ele>
        <time>2015-06-10T08:31:41Z</time>
      </trkpt>
      <trkpt lat="50.12865" lon="3.64868">
        <ele>156.35</ele>
        <time>2015-06-10T08:31:47Z</time>
      </trkpt>
      <trkpt lat="50.12867" lon="3.64874">
        <ele>155.87</ele>
        <time>2015-06-10T08:31:48Z</time>
      </trkpt>
      <trkpt lat="50.1287" lon="3.6488">
        <ele>155.87</ele>
        <time>2015-06-10T08:31:49Z</time>
      </trkpt>
      <trkpt lat="50.12886" lon="3.6492">
        <ele>157.31</ele>
        <time>2015-06-10T08:31:55Z</time>
      </trkpt>
      <trkpt lat="50.12907" lon="3.64973">
        <ele>159.72</ele>
        <time>2015-06-10T08:32:07Z</time>
      </trkpt>
      <trkpt lat="50.12908" lon="3.6499">
        <ele>160.68</ele>
        <time>2015-06-10T08:32:12Z</time>
      </trkpt>
      <trkpt lat="50.12906" lon="3.64992">
        <ele>160.68</ele>
        <time>2015-06-10T08:32:13Z</time>
      </trkpt>
      <trkpt lat="50.12904" lon="3.64994">
        <ele>160.68</ele>
        <time>2015-06-10T08:32:14Z</time>
      </trkpt>
      <trkpt lat="50.12861" lon="3.65037">
        <ele>160.68</ele>
        <time>2015-06-10T08:32:29Z</time>
      </trkpt>
      <trkpt lat="50.12851" lon="3.65048">
        <ele>159.24</ele>
        <time>2015-06-10T08:32:32Z</time>
      </trkpt>
      <trkpt lat="50.12847" lon="3.65053">
        <ele>159.24</ele>
        <time>2015-06-10T08:32:33Z</time>
      </trkpt>
      <trkpt lat="50.12843" lon="3.65057">
        <ele>158.75</ele>
        <time>2015-06-10T08:32:34Z</time>
      </trkpt>
      <trkpt lat="50.12839" lon="3.65061">
        <ele>158.75</ele>
        <time>2015-06-10T08:32:35Z</time>
      </trkpt>
      <trkpt lat="50.1278" lon="3.65117">
        <ele>156.35</ele>
        <time>2015-06-10T08:32:48Z</time>
      </trkpt>
      <trkpt lat="50.12717" lon="3.65176">
        <ele>153.47</ele>
        <time>2015-06-10T08:32:59Z</time>
      </trkpt>
      <trkpt lat="50.12691" lon="3.65201">
        <ele>151.54</ele>
        <time>2015-06-10T08:33:03Z</time>
      </trkpt>
      <trkpt lat="50.12671" lon="3.65221">
        <ele>150.1</ele>
        <time>2015-06-10T08:33:06Z</time>
      </trkpt>
      <trkpt lat="50.1265" lon="3.65241">
        <ele>149.14</ele>
        <time>2015-06-10T08:33:09Z</time>
      </trkpt>
      <trkpt lat="50.12592" lon="3.65297">
        <ele>150.1</ele>
        <time>2015-06-10T08:33:20Z</time>
      </trkpt>
      <trkpt lat="50.12566" lon="3.65321">
        <ele>151.06</ele>
        <time>2015-06-10T08:33:27Z</time>
      </trkpt>
      <trkpt lat="50.12563" lon="3.65326">
        <ele>151.06</ele>
        <time>2015-06-10T08:33:28Z</time>
      </trkpt>
      <trkpt lat="50.1256" lon="3.6533">
        <ele>151.06</ele>
        <time>2015-06-10T08:33:29Z</time>
      </trkpt>
      <trkpt lat="50.12558" lon="3.65336">
        <ele>152.03</ele>
        <time>2015-06-10T08:33:30Z</time>
      </trkpt>
      <trkpt lat="50.12556" lon="3.65342">
        <ele>152.03</ele>
        <time>2015-06-10T08:33:31Z</time>
      </trkpt>
      <trkpt lat="50.12556" lon="3.65348">
        <ele>152.03</ele>
        <time>2015-06-10T08:33:32Z</time>
      </trkpt>
      <trkpt lat="50.12555" lon="3.65353">
        <ele>152.03</ele>
        <time>2015-06-10T08:33:33Z</time>
      </trkpt>
      <trkpt lat="50.12554" lon="3.65359">
        <ele>152.03</ele>
        <time>2015-06-10T08:33:34Z</time>
      </trkpt>
      <trkpt lat="50.12564" lon="3.65426">
        <ele>153.47</ele>
        <time>2015-06-10T08:33:47Z</time>
      </trkpt>
      <trkpt lat="50.12581" lon="3.65496">
        <ele>155.39</ele>
        <time>2015-06-10T08:34:02Z</time>
      </trkpt>
      <trkpt lat="50.12612" lon="3.6558">
        <ele>155.87</ele>
        <time>2015-06-10T08:34:20Z</time>
      </trkpt>
      <trkpt lat="50.12643" lon="3.65647">
        <ele>154.91</ele>
        <time>2015-06-10T08:34:32Z</time>
      </trkpt>
      <trkpt lat="50.12675" lon="3.65774">
        <ele>153.47</ele>
        <time>2015-06-10T08:34:48Z</time>
      </trkpt>
      <trkpt lat="50.12678" lon="3.65884">
        <ele>154.91</ele>
        <time>2015-06-10T08:35:03Z</time>
      </trkpt>
      <trkpt lat="50.12681" lon="3.65975">
        <ele>155.87</ele>
        <time>2015-06-10T08:35:16Z</time>
      </trkpt>
      <trkpt lat="50.12682" lon="3.65999">
        <ele>154.43</ele>
        <time>2015-06-10T08:35:19Z</time>
      </trkpt>
      <trkpt lat="50.12688" lon="3.66132">
        <ele>152.51</ele>
        <time>2015-06-10T08:35:35Z</time>
      </trkpt>
      <trkpt lat="50.12694" lon="3.66226">
        <ele>152.51</ele>
        <time>2015-06-10T08:35:48Z</time>
      </trkpt>
      <trkpt lat="50.12694" lon="3.66234">
        <ele>152.51</ele>
        <time>2015-06-10T08:35:49Z</time>
      </trkpt>
      <trkpt lat="50.12695" lon="3.66243">
        <ele>153.95</ele>
        <time>2015-06-10T08:35:50Z</time>
      </trkpt>
      <trkpt lat="50.12696" lon="3.66258">
        <ele>154.91</ele>
        <time>2015-06-10T08:35:52Z</time>
      </trkpt>
      <trkpt lat="50.127" lon="3.66317">
        <ele>155.87</ele>
        <time>2015-06-10T08:36:03Z</time>
      </trkpt>
      <trkpt lat="50.12702" lon="3.66381">
        <ele>158.27</ele>
        <time>2015-06-10T08:36:15Z</time>
      </trkpt>
      <trkpt lat="50.12703" lon="3.66455">
        <ele>159.72</ele>
        <time>2015-06-10T08:36:30Z</time>
      </trkpt>
      <trkpt lat="50.12686" lon="3.66534">
        <ele>159.72</ele>
        <time>2015-06-10T08:36:45Z</time>
      </trkpt>
      <trkpt lat="50.12655" lon="3.66665">
        <ele>157.79</ele>
        <time>2015-06-10T08:37:04Z</time>
      </trkpt>
      <trkpt lat="50.12652" lon="3.66696">
        <ele>156.35</ele>
        <time>2015-06-10T08:37:08Z</time>
      </trkpt>
      <trkpt lat="50.1265" lon="3.66703">
        <ele>156.35</ele>
        <time>2015-06-10T08:37:09Z</time>
      </trkpt>
      <trkpt lat="50.1265" lon="3.66711">
        <ele>155.39</ele>
        <time>2015-06-10T08:37:10Z</time>
      </trkpt>
      <trkpt lat="50.12638" lon="3.66849">
        <ele>153.95</ele>
        <time>2015-06-10T08:37:27Z</time>
      </trkpt>
      <trkpt lat="50.12652" lon="3.66982">
        <ele>153.47</ele>
        <time>2015-06-10T08:37:45Z</time>
      </trkpt>
      <trkpt lat="50.12661" lon="3.67017">
        <ele>153.47</ele>
        <time>2015-06-10T08:37:51Z</time>
      </trkpt>
      <trkpt lat="50.12663" lon="3.67022">
        <ele>153.47</ele>
        <time>2015-06-10T08:37:52Z</time>
      </trkpt>
      <trkpt lat="50.12667" lon="3.67034">
        <ele>152.51</ele>
        <time>2015-06-10T08:37:54Z</time>
      </trkpt>
      <trkpt lat="50.12684" lon="3.6707">
        <ele>151.54</ele>
        <time>2015-06-10T08:38:00Z</time>
      </trkpt>
      <trkpt lat="50.12688" lon="3.67084">
        <ele>151.54</ele>
        <time>2015-06-10T08:38:02Z</time>
      </trkpt>
      <trkpt lat="50.1269" lon="3.67091">
        <ele>151.06</ele>
        <time>2015-06-10T08:38:03Z</time>
      </trkpt>
      <trkpt lat="50.12691" lon="3.67106">
        <ele>150.1</ele>
        <time>2015-06-10T08:38:05Z</time>
      </trkpt>
      <trkpt lat="50.12691" lon="3.67113">
        <ele>150.1</ele>
        <time>2015-06-10T08:38:06Z</time>
      </trkpt>
      <trkpt lat="50.12693" lon="3.6712">
        <ele>150.1</ele>
        <time>2015-06-10T08:38:07Z</time>
      </trkpt>
      <trkpt lat="50.12696" lon="3.67126">
        <ele>150.1</ele>
        <time>2015-06-10T08:38:08Z</time>
      </trkpt>
      <trkpt lat="50.12699" lon="3.67131">
        <ele>150.1</ele>
        <time>2015-06-10T08:38:09Z</time>
      </trkpt>
      <trkpt lat="50.12701" lon="3.67135">
        <ele>150.1</ele>
        <time>2015-06-10T08:38:10Z</time>
      </trkpt>
      <trkpt lat="50.12728" lon="3.672">
        <ele>152.99</ele>
        <time>2015-06-10T08:38:26Z</time>
      </trkpt>
      <trkpt lat="50.12737" lon="3.67281">
        <ele>151.54</ele>
        <time>2015-06-10T08:38:40Z</time>
      </trkpt>
      <trkpt lat="50.12756" lon="3.67387">
        <ele>148.18</ele>
        <time>2015-06-10T08:38:52Z</time>
      </trkpt>
      <trkpt lat="50.12792" lon="3.67524">
        <ele>147.22</ele>
        <time>2015-06-10T08:39:09Z</time>
      </trkpt>
      <trkpt lat="50.12823" lon="3.67642">
        <ele>147.22</ele>
        <time>2015-06-10T08:39:26Z</time>
      </trkpt>
      <trkpt lat="50.12825" lon="3.67648">
        <ele>148.66</ele>
        <time>2015-06-10T08:39:27Z</time>
      </trkpt>
      <trkpt lat="50.12826" lon="3.67654">
        <ele>148.66</ele>
        <time>2015-06-10T08:39:28Z</time>
      </trkpt>
      <trkpt lat="50.12848" lon="3.67736">
        <ele>148.66</ele>
        <time>2015-06-10T08:39:43Z</time>
      </trkpt>
      <trkpt lat="50.12856" lon="3.67777">
        <ele>148.66</ele>
        <time>2015-06-10T08:39:49Z</time>
      </trkpt>
      <trkpt lat="50.12872" lon="3.67929">
        <ele>146.26</ele>
        <time>2015-06-10T08:40:08Z</time>
      </trkpt>
      <trkpt lat="50.12897" lon="3.6804">
        <ele>145.3</ele>
        <time>2015-06-10T08:40:22Z</time>
      </trkpt>
      <trkpt lat="50.12917" lon="3.68147">
        <ele>145.3</ele>
        <time>2015-06-10T08:40:38Z</time>
      </trkpt>
      <trkpt lat="50.12947" lon="3.68241">
        <ele>146.26</ele>
        <time>2015-06-10T08:40:54Z</time>
      </trkpt>
      <trkpt lat="50.12959" lon="3.68302">
        <ele>146.26</ele>
        <time>2015-06-10T08:41:05Z</time>
      </trkpt>
      <trkpt lat="50.12957" lon="3.68306">
        <ele>146.26</ele>
        <time>2015-06-10T08:41:06Z</time>
      </trkpt>
      <trkpt lat="50.12953" lon="3.6831">
        <ele>146.26</ele>
        <time>2015-06-10T08:41:07Z</time>
      </trkpt>
      <trkpt lat="50.12949" lon="3.68313">
        <ele>146.26</ele>
        <time>2015-06-10T08:41:08Z</time>
      </trkpt>
      <trkpt lat="50.12945" lon="3.68315">
        <ele>146.26</ele>
        <time>2015-06-10T08:41:09Z</time>
      </trkpt>
      <trkpt lat="50.12918" lon="3.68325">
        <ele>147.7</ele>
        <time>2015-06-10T08:41:15Z</time>
      </trkpt>
      <trkpt lat="50.1291" lon="3.6833">
        <ele>149.14</ele>
        <time>2015-06-10T08:41:17Z</time>
      </trkpt>
      <trkpt lat="50.12885" lon="3.68351">
        <ele>149.62</ele>
        <time>2015-06-10T08:41:24Z</time>
      </trkpt>
      <trkpt lat="50.12879" lon="3.68359">
        <ele>149.62</ele>
        <time>2015-06-10T08:41:26Z</time>
      </trkpt>
      <trkpt lat="50.12837" lon="3.68448">
        <ele>145.78</ele>
        <time>2015-06-10T08:41:39Z</time>
      </trkpt>
      <trkpt lat="50.1283" lon="3.6848">
        <ele>144.34</ele>
        <time>2015-06-10T08:41:42Z</time>
      </trkpt>
      <trkpt lat="50.12815" lon="3.68551">
        <ele>140.97</ele>
        <time>2015-06-10T08:41:48Z</time>
      </trkpt>
      <trkpt lat="50.12812" lon="3.68564">
        <ele>140.97</ele>
        <time>2015-06-10T08:41:49Z</time>
      </trkpt>
      <trkpt lat="50.12803" lon="3.68599">
        <ele>140.49</ele>
        <time>2015-06-10T08:41:52Z</time>
      </trkpt>
      <trkpt lat="50.12798" lon="3.68608">
        <ele>139.53</ele>
        <time>2015-06-10T08:41:53Z</time>
      </trkpt>
      <trkpt lat="50.12793" lon="3.68613">
        <ele>139.05</ele>
        <time>2015-06-10T08:41:54Z</time>
      </trkpt>
      <trkpt lat="50.12787" lon="3.68615">
        <ele>139.05</ele>
        <time>2015-06-10T08:41:55Z</time>
      </trkpt>
      <trkpt lat="50.12782" lon="3.68613">
        <ele>138.57</ele>
        <time>2015-06-10T08:41:56Z</time>
      </trkpt>
      <trkpt lat="50.12778" lon="3.68606">
        <ele>138.57</ele>
        <time>2015-06-10T08:41:57Z</time>
      </trkpt>
      <trkpt lat="50.12776" lon="3.68599">
        <ele>138.09</ele>
        <time>2015-06-10T08:41:58Z</time>
      </trkpt>
      <trkpt lat="50.12773" lon="3.68592">
        <ele>138.09</ele>
        <time>2015-06-10T08:41:59Z</time>
      </trkpt>
      <trkpt lat="50.1277" lon="3.68584">
        <ele>138.09</ele>
        <time>2015-06-10T08:42:00Z</time>
      </trkpt>
      <trkpt lat="50.1274" lon="3.68528">
        <ele>138.57</ele>
        <time>2015-06-10T08:42:08Z</time>
      </trkpt>
      <trkpt lat="50.12737" lon="3.68521">
        <ele>138.57</ele>
        <time>2015-06-10T08:42:09Z</time>
      </trkpt>
      <trkpt lat="50.12736" lon="3.68512">
        <ele>138.09</ele>
        <time>2015-06-10T08:42:10Z</time>
      </trkpt>
      <trkpt lat="50.12737" lon="3.68503">
        <ele>138.09</ele>
        <time>2015-06-10T08:42:11Z</time>
      </trkpt>
      <trkpt lat="50.1274" lon="3.68495">
        <ele>138.09</ele>
        <time>2015-06-10T08:42:12Z</time>
      </trkpt>
      <trkpt lat="50.12744" lon="3.6849">
        <ele>138.09</ele>
        <time>2015-06-10T08:42:13Z</time>
      </trkpt>
      <trkpt lat="50.12749" lon="3.68487">
        <ele>138.09</ele>
        <time>2015-06-10T08:42:14Z</time>
      </trkpt>
      <trkpt lat="50.12754" lon="3.68483">
        <ele>138.09</ele>
        <time>2015-06-10T08:42:15Z</time>
      </trkpt>
      <trkpt lat="50.12771" lon="3.68471">
        <ele>139.53</ele>
        <time>2015-06-10T08:42:19Z</time>
      </trkpt>
      <trkpt lat="50.12793" lon="3.68453">
        <ele>139.53</ele>
        <time>2015-06-10T08:42:25Z</time>
      </trkpt>
      <trkpt lat="50.12795" lon="3.68448">
        <ele>139.53</ele>
        <time>2015-06-10T08:42:26Z</time>
      </trkpt>
      <trkpt lat="50.12796" lon="3.68441">
        <ele>139.53</ele>
        <time>2015-06-10T08:42:27Z</time>
      </trkpt>
      <trkpt lat="50.12795" lon="3.68435">
        <ele>139.53</ele>
        <time>2015-06-10T08:42:28Z</time>
      </trkpt>
      <trkpt lat="50.12794" lon="3.68429">
        <ele>140.01</ele>
        <time>2015-06-10T08:42:29Z</time>
      </trkpt>
      <trkpt lat="50.1276" lon="3.68327">
        <ele>140.01</ele>
        <time>2015-06-10T08:42:44Z</time>
      </trkpt>
      <trkpt lat="50.12749" lon="3.68295">
        <ele>139.05</ele>
        <time>2015-06-10T08:42:48Z</time>
      </trkpt>
      <trkpt lat="50.12716" lon="3.68196">
        <ele>139.05</ele>
        <time>2015-06-10T08:43:00Z</time>
      </trkpt>
      <trkpt lat="50.1266" lon="3.68074">
        <ele>137.61</ele>
        <time>2015-06-10T08:43:15Z</time>
      </trkpt>
      <trkpt lat="50.12657" lon="3.68066">
        <ele>137.61</ele>
        <time>2015-06-10T08:43:16Z</time>
      </trkpt>
      <trkpt lat="50.12654" lon="3.68058">
        <ele>137.61</ele>
        <time>2015-06-10T08:43:17Z</time>
      </trkpt>
      <trkpt lat="50.12639" lon="3.68028">
        <ele>137.61</ele>
        <time>2015-06-10T08:43:21Z</time>
      </trkpt>
      <trkpt lat="50.12636" lon="3.68021">
        <ele>137.61</ele>
        <time>2015-06-10T08:43:22Z</time>
      </trkpt>
      <trkpt lat="50.12632" lon="3.68014">
        <ele>137.61</ele>
        <time>2015-06-10T08:43:23Z</time>
      </trkpt>
      <trkpt lat="50.12629" lon="3.68007">
        <ele>137.61</ele>
        <time>2015-06-10T08:43:24Z</time>
      </trkpt>
      <trkpt lat="50.12626" lon="3.68">
        <ele>137.61</ele>
        <time>2015-06-10T08:43:25Z</time>
      </trkpt>
      <trkpt lat="50.12622" lon="3.67993">
        <ele>137.61</ele>
        <time>2015-06-10T08:43:26Z</time>
      </trkpt>
      <trkpt lat="50.12619" lon="3.67987">
        <ele>137.61</ele>
        <time>2015-06-10T08:43:27Z</time>
      </trkpt>
      <trkpt lat="50.12615" lon="3.67981">
        <ele>139.05</ele>
        <time>2015-06-10T08:43:28Z</time>
      </trkpt>
      <trkpt lat="50.12611" lon="3.67974">
        <ele>139.05</ele>
        <time>2015-06-10T08:43:29Z</time>
      </trkpt>
      <trkpt lat="50.12584" lon="3.67922">
        <ele>137.61</ele>
        <time>2015-06-10T08:43:37Z</time>
      </trkpt>
      <trkpt lat="50.12579" lon="3.67916">
        <ele>137.61</ele>
        <time>2015-06-10T08:43:38Z</time>
      </trkpt>
      <trkpt lat="50.12575" lon="3.6791">
        <ele>137.61</ele>
        <time>2015-06-10T08:43:39Z</time>
      </trkpt>
      <trkpt lat="50.12508" lon="3.67852">
        <ele>137.61</ele>
        <time>2015-06-10T08:43:52Z</time>
      </trkpt>
      <trkpt lat="50.12494" lon="3.67835">
        <ele>137.61</ele>
        <time>2015-06-10T08:44:00Z</time>
      </trkpt>
      <trkpt lat="50.12494" lon="3.67836">
        <ele>137.61</ele>
        <time>2015-06-10T08:44:31Z</time>
      </trkpt>
      <trkpt lat="50.12494" lon="3.67836">
        <ele>137.61</ele>
        <time>2015-06-10T08:44:55Z</time>
      </trkpt>
      <trkpt lat="50.12493" lon="3.67837">
        <ele>137.61</ele>
        <time>2015-06-10T08:45:29Z</time>
      </trkpt>
      <trkpt lat="50.12492" lon="3.67834">
        <ele>137.61</ele>
        <time>2015-06-10T08:45:56Z</time>
      </trkpt>
      <trkpt lat="50.12493" lon="3.67834">
        <ele>137.61</ele>
        <time>2015-06-10T08:46:18Z</time>
      </trkpt>
      <trkpt lat="50.12495" lon="3.67834">
        <ele>137.61</ele>
        <time>2015-06-10T08:46:44Z</time>
      </trkpt>
      <trkpt lat="50.12495" lon="3.6783">
        <ele>137.61</ele>
        <time>2015-06-10T08:47:07Z</time>
      </trkpt>
      <trkpt lat="50.12495" lon="3.67828">
        <ele>137.61</ele>
        <time>2015-06-10T08:47:08Z</time>
      </trkpt>
      <trkpt lat="50.12495" lon="3.67824">
        <ele>137.61</ele>
        <time>2015-06-10T08:47:23Z</time>
      </trkpt>
      <trkpt lat="50.12493" lon="3.67825">
        <ele>137.61</ele>
        <time>2015-06-10T08:47:54Z</time>
      </trkpt>
      <trkpt lat="50.12496" lon="3.67829">
        <ele>137.61</ele>
        <time>2015-06-10T08:48:22Z</time>
      </trkpt>
      <trkpt lat="50.12495" lon="3.67827">
        <ele>138.57</ele>
        <time>2015-06-10T08:48:59Z</time>
      </trkpt>
      <trkpt lat="50.12496" lon="3.67828">
        <ele>138.57</ele>
        <time>2015-06-10T08:49:23Z</time>
      </trkpt>
      <trkpt lat="50.12496" lon="3.67828">
        <ele>138.57</ele>
        <time>2015-06-10T08:49:53Z</time>
      </trkpt>
      <trkpt lat="50.12496" lon="3.67828">
        <ele>139.05</ele>
        <time>2015-06-10T08:50:11Z</time>
      </trkpt>
      <trkpt lat="50.12497" lon="3.6783">
        <ele>139.05</ele>
        <time>2015-06-10T08:50:40Z</time>
      </trkpt>
      <trkpt lat="50.12499" lon="3.6783">
        <ele>139.05</ele>
        <time>2015-06-10T08:51:11Z</time>
      </trkpt>
      <trkpt lat="50.12498" lon="3.67829">
        <ele>139.05</ele>
        <time>2015-06-10T08:51:38Z</time>
      </trkpt>
      <trkpt lat="50.12496" lon="3.67826">
        <ele>139.05</ele>
        <time>2015-06-10T08:52:08Z</time>
      </trkpt>
      <trkpt lat="50.12495" lon="3.67828">
        <ele>139.05</ele>
        <time>2015-06-10T08:52:24Z</time>
      </trkpt>
      <trkpt lat="50.12494" lon="3.67828">
        <ele>139.05</ele>
        <time>2015-06-10T08:52:25Z</time>
      </trkpt>
      <trkpt lat="50.12493" lon="3.67828">
        <ele>139.05</ele>
        <time>2015-06-10T08:52:26Z</time>
      </trkpt>
      <trkpt lat="50.12492" lon="3.67827">
        <ele>139.05</ele>
        <time>2015-06-10T08:52:27Z</time>
      </trkpt>
      <trkpt lat="50.12491" lon="3.67826">
        <ele>139.05</ele>
        <time>2015-06-10T08:52:28Z</time>
      </trkpt>
      <trkpt lat="50.1249" lon="3.67824">
        <ele>139.05</ele>
        <time>2015-06-10T08:52:29Z</time>
      </trkpt>
      <trkpt lat="50.12489" lon="3.67823">
        <ele>139.05</ele>
        <time>2015-06-10T08:52:30Z</time>
      </trkpt>
      <trkpt lat="50.12488" lon="3.67822">
        <ele>139.05</ele>
        <time>2015-06-10T08:52:31Z</time>
      </trkpt>
      <trkpt lat="50.12469" lon="3.67815">
        <ele>139.05</ele>
        <time>2015-06-10T08:52:46Z</time>
      </trkpt>
      <trkpt lat="50.12453" lon="3.67816">
        <ele>138.09</ele>
        <time>2015-06-10T08:53:05Z</time>
      </trkpt>
      <trkpt lat="50.12454" lon="3.67817">
        <ele>138.09</ele>
        <time>2015-06-10T08:53:40Z</time>
      </trkpt>
      <trkpt lat="50.12454" lon="3.67815">
        <ele>138.09</ele>
        <time>2015-06-10T08:54:06Z</time>
      </trkpt>
      <trkpt lat="50.12453" lon="3.67818">
        <ele>139.53</ele>
        <time>2015-06-10T08:54:16Z</time>
      </trkpt>
      <trkpt lat="50.12454" lon="3.67818">
        <ele>134.72</ele>
        <time>2015-06-10T08:54:46Z</time>
      </trkpt>
      <trkpt lat="50.12454" lon="3.67818">
        <ele>140.01</ele>
        <time>2015-06-10T08:54:47Z</time>
      </trkpt>
      <trkpt lat="50.12454" lon="3.67817">
        <ele>140.01</ele>
        <time>2015-06-10T08:54:48Z</time>
      </trkpt>
      <trkpt lat="50.12454" lon="3.67818">
        <ele>138.09</ele>
        <time>2015-06-10T08:54:51Z</time>
      </trkpt>
    </trkseg>
  </trk>
</gpx>